Wetterdaten: Sonntag, 23.11.2025
Datum Zeit Temp. Aussen Temp. o. S. Temp +5cm Feuchte Auss Luftdruck Regen Sonnenschein Regendauer Solar Windböen Empfang
23.11.2025 00:00 -1,1 °C -1,7 °C -5,0 °C 82 % 1019,9 hPa 0,0 l/m² 0 min 0 min 0 W/m² 12,9 km/h (3 Bft) 97,87 %
23.11.2025 00:02 -1,1 °C -1,7 °C -5,0 °C 82 % 1019,9 hPa 0,0 l/m² 0 min 0 min 0 W/m² 12,9 km/h (3 Bft) 95,24 %
23.11.2025 00:04 -1,1 °C -1,7 °C -5,0 °C 82 % 1019,8 hPa 0,0 l/m² 0 min 0 min 0 W/m² 16,1 km/h (3 Bft) 97,92 %
23.11.2025 00:10 -1,1 °C -1,7 °C -5,0 °C 82 % 1019,8 hPa 0,0 l/m² 0 min 0 min 0 W/m² 16,1 km/h (3 Bft) 96,97 %
23.11.2025 00:12 -1,1 °C -1,7 °C -5,0 °C 82 % 1019,8 hPa 0,0 l/m² 0 min 0 min 0 W/m² 12,9 km/h (3 Bft) 100,00 %
23.11.2025 00:14 -1,1 °C -1,7 °C -5,0 °C 83 % 1019,8 hPa 0,0 l/m² 0 min 0 min 0 W/m² 12,9 km/h (3 Bft) 95,74 %
23.11.2025 00:16 -1,1 °C -1,7 °C -5,0 °C 83 % 1019,7 hPa 0,0 l/m² 0 min 0 min 0 W/m² 16,1 km/h (3 Bft) 97,87 %
23.11.2025 00:18 -1,1 °C -1,7 °C -5,0 °C 83 % 1019,8 hPa 0,0 l/m² 0 min 0 min 0 W/m² 16,1 km/h (3 Bft) 100,00 %
23.11.2025 00:20 -1,1 °C -1,7 °C -5,0 °C 83 % 1019,7 hPa 0,0 l/m² 0 min 0 min 0 W/m² 12,9 km/h (3 Bft) 100,00 %
23.11.2025 00:22 -1,1 °C -1,7 °C -5,0 °C 83 % 1019,7 hPa 0,0 l/m² 0 min 0 min 0 W/m² 16,1 km/h (3 Bft) 97,83 %
23.11.2025 00:24 -1,1 °C -1,7 °C -5,0 °C 83 % 1019,7 hPa 0,0 l/m² 0 min 0 min 0 W/m² 6,4 km/h (2 Bft) 97,87 %
23.11.2025 00:26 -1,1 °C -1,7 °C -5,0 °C 83 % 1019,6 hPa 0,0 l/m² 0 min 0 min 0 W/m² 12,9 km/h (3 Bft) 97,87 %
23.11.2025 00:28 -1,1 °C -1,7 °C -5,0 °C 83 % 1019,6 hPa 0,0 l/m² 0 min 0 min 0 W/m² 22,5 km/h (4 Bft) 97,87 %
23.11.2025 00:30 -1,1 °C -1,7 °C -5,0 °C 83 % 1019,5 hPa 0,0 l/m² 0 min 0 min 0 W/m² 16,1 km/h (3 Bft) 97,87 %
23.11.2025 00:32 -1,1 °C -1,7 °C -5,0 °C 83 % 1019,5 hPa 0,0 l/m² 0 min 0 min 0 W/m² 19,3 km/h (3 Bft) 96,23 %
23.11.2025 00:34 -1,1 °C -1,7 °C -5,0 °C 83 % 1019,5 hPa 0,0 l/m² 0 min 0 min 0 W/m² 22,5 km/h (4 Bft) 97,83 %
23.11.2025 00:36 -1,1 °C -1,7 °C -5,0 °C 83 % 1019,4 hPa 0,0 l/m² 0 min 0 min 0 W/m² 19,3 km/h (3 Bft) 95,83 %
23.11.2025 00:38 -1,1 °C -1,7 °C -5,0 °C 83 % 1019,4 hPa 0,0 l/m² 0 min 0 min 0 W/m² 16,1 km/h (3 Bft) 70,21 %
23.11.2025 00:40 -1,1 °C -1,7 °C -5,0 °C 83 % 1019,4 hPa 0,0 l/m² 0 min 0 min 0 W/m² 12,9 km/h (3 Bft) 79,49 %
23.11.2025 00:42 -1,1 °C -1,7 °C -5,0 °C 83 % 1019,4 hPa 0,0 l/m² 0 min 0 min 0 W/m² 19,3 km/h (3 Bft) 95,83 %
23.11.2025 00:44 -1,1 °C -1,7 °C -5,0 °C 83 % 1019,3 hPa 0,0 l/m² 0 min 0 min 0 W/m² 19,3 km/h (3 Bft) 97,83 %
23.11.2025 00:46 -1,1 °C -1,7 °C -5,0 °C 83 % 1019,3 hPa 0,0 l/m² 0 min 0 min 0 W/m² 12,9 km/h (3 Bft) 97,92 %
23.11.2025 00:48 -1,1 °C -1,7 °C -5,0 °C 83 % 1019,3 hPa 0,0 l/m² 0 min 0 min 0 W/m² 16,1 km/h (3 Bft) 97,83 %
23.11.2025 00:50 -1,1 °C -1,7 °C -5,0 °C 83 % 1019,3 hPa 0,0 l/m² 0 min 0 min 0 W/m² 12,9 km/h (3 Bft) 97,92 %
23.11.2025 00:52 -1,1 °C -1,7 °C -5,0 °C 83 % 1019,3 hPa 0,0 l/m² 0 min 0 min 0 W/m² 19,3 km/h (3 Bft) 100,00 %
23.11.2025 00:54 -1,1 °C -1,7 °C -5,0 °C 83 % 1019,3 hPa 0,0 l/m² 0 min 0 min 0 W/m² 16,1 km/h (3 Bft) 100,00 %
23.11.2025 00:56 -1,1 °C -1,7 °C -5,0 °C 83 % 1019,2 hPa 0,0 l/m² 0 min 0 min 0 W/m² 19,3 km/h (3 Bft) 100,00 %
23.11.2025 00:58 -1,1 °C -1,7 °C -5,0 °C 83 % 1019,2 hPa 0,0 l/m² 0 min 0 min 0 W/m² 12,9 km/h (3 Bft) 100,00 %
23.11.2025 01:00 -1,1 °C -1,7 °C -5,0 °C 83 % 1019,2 hPa 0,0 l/m² 0 min 0 min 0 W/m² 16,1 km/h (3 Bft) 100,00 %
23.11.2025 01:02 -1,1 °C -1,7 °C -5,0 °C 83 % 1019,1 hPa 0,0 l/m² 0 min 0 min 0 W/m² 16,1 km/h (3 Bft) 100,00 %
23.11.2025 01:04 -1,1 °C -1,7 °C -5,0 °C 83 % 1019,2 hPa 0,0 l/m² 0 min 0 min 0 W/m² 19,3 km/h (3 Bft) 97,96 %
23.11.2025 01:08 -1,1 °C -1,7 °C -5,0 °C 83 % 1019,1 hPa 0,0 l/m² 0 min 0 min 0 W/m² 19,3 km/h (3 Bft) 98,94 %
23.11.2025 01:10 -1,1 °C -1,7 °C -5,0 °C 83 % 1019,1 hPa 0,0 l/m² 0 min 0 min 0 W/m² 16,1 km/h (3 Bft) 97,87 %
23.11.2025 01:12 -1,2 °C -1,7 °C -5,0 °C 83 % 1019,1 hPa 0,0 l/m² 0 min 0 min 0 W/m² 9,7 km/h (2 Bft) 100,00 %
23.11.2025 01:14 -1,2 °C -1,7 °C -5,0 °C 83 % 1019,0 hPa 0,0 l/m² 0 min 0 min 0 W/m² 16,1 km/h (3 Bft) 100,00 %
23.11.2025 01:16 -1,2 °C -1,7 °C -5,0 °C 83 % 1019,0 hPa 0,0 l/m² 0 min 0 min 0 W/m² 12,9 km/h (3 Bft) 100,00 %
23.11.2025 01:18 -1,2 °C -1,7 °C -5,0 °C 83 % 1019,0 hPa 0,0 l/m² 0 min 0 min 0 W/m² 19,3 km/h (3 Bft) 56,52 %
23.11.2025 01:20 -1,2 °C -1,7 °C -5,0 °C 83 % 1019,0 hPa 0,0 l/m² 0 min 0 min 0 W/m² 12,9 km/h (3 Bft) 100,00 %
23.11.2025 01:22 -1,2 °C -1,7 °C -5,0 °C 83 % 1018,9 hPa 0,0 l/m² 0 min 0 min 0 W/m² 16,1 km/h (3 Bft) 100,00 %
23.11.2025 01:24 -1,2 °C -1,7 °C -5,0 °C 83 % 1018,9 hPa 0,0 l/m² 0 min 0 min 0 W/m² 19,3 km/h (3 Bft) 100,00 %
23.11.2025 01:26 -1,2 °C -1,7 °C -5,6 °C 83 % 1018,9 hPa 0,0 l/m² 0 min 0 min 0 W/m² 19,3 km/h (3 Bft) 100,00 %
23.11.2025 01:28 -1,2 °C -1,7 °C -5,6 °C 83 % 1018,9 hPa 0,0 l/m² 0 min 0 min 0 W/m² 16,1 km/h (3 Bft) 100,00 %
23.11.2025 01:30 -1,2 °C -2,2 °C -5,6 °C 83 % 1018,8 hPa 0,0 l/m² 0 min 0 min 0 W/m² 12,9 km/h (3 Bft) 100,00 %
23.11.2025 01:32 -1,2 °C -2,2 °C -5,6 °C 83 % 1018,8 hPa 0,0 l/m² 0 min 0 min 0 W/m² 9,7 km/h (2 Bft) 100,00 %
23.11.2025 01:34 -1,2 °C -2,2 °C -5,6 °C 83 % 1018,8 hPa 0,0 l/m² 0 min 0 min 0 W/m² 12,9 km/h (3 Bft) 97,87 %
23.11.2025 01:36 -1,2 °C -2,2 °C -5,6 °C 83 % 1018,7 hPa 0,0 l/m² 0 min 0 min 0 W/m² 16,1 km/h (3 Bft) 100,00 %
23.11.2025 01:38 -1,2 °C -2,2 °C -5,6 °C 83 % 1018,7 hPa 0,0 l/m² 0 min 0 min 0 W/m² 12,9 km/h (3 Bft) 100,00 %
23.11.2025 01:40 -1,2 °C -2,2 °C -5,6 °C 83 % 1018,6 hPa 0,0 l/m² 0 min 0 min 0 W/m² 6,4 km/h (2 Bft) 100,00 %
23.11.2025 01:42 -1,2 °C -2,2 °C -5,6 °C 83 % 1018,7 hPa 0,0 l/m² 0 min 0 min 0 W/m² 16,1 km/h (3 Bft) 97,83 %
23.11.2025 01:44 -1,3 °C -2,2 °C -5,6 °C 83 % 1018,6 hPa 0,0 l/m² 0 min 0 min 0 W/m² 19,3 km/h (3 Bft) 100,00 %
23.11.2025 01:46 -1,3 °C -2,2 °C -5,6 °C 83 % 1018,7 hPa 0,0 l/m² 0 min 0 min 0 W/m² 16,1 km/h (3 Bft) 97,87 %
23.11.2025 01:48 -1,3 °C -2,2 °C -5,6 °C 83 % 1018,6 hPa 0,0 l/m² 0 min 0 min 0 W/m² 12,9 km/h (3 Bft) 100,00 %
23.11.2025 01:50 -1,3 °C -2,2 °C -5,6 °C 83 % 1018,6 hPa 0,0 l/m² 0 min 0 min 0 W/m² 12,9 km/h (3 Bft) 95,74 %
23.11.2025 01:52 -1,3 °C -2,2 °C -5,6 °C 83 % 1018,6 hPa 0,0 l/m² 0 min 0 min 0 W/m² 12,9 km/h (3 Bft) 95,65 %
23.11.2025 01:54 -1,3 °C -2,2 °C -5,6 °C 83 % 1018,5 hPa 0,0 l/m² 0 min 0 min 0 W/m² 19,3 km/h (3 Bft) 95,74 %
23.11.2025 01:56 -1,3 °C -2,2 °C -5,6 °C 83 % 1018,5 hPa 0,0 l/m² 0 min 0 min 0 W/m² 12,9 km/h (3 Bft) 97,87 %
23.11.2025 01:58 -1,3 °C -2,2 °C -5,6 °C 83 % 1018,5 hPa 0,0 l/m² 0 min 0 min 0 W/m² 16,1 km/h (3 Bft) 95,74 %
23.11.2025 02:00 -1,3 °C -2,2 °C -5,6 °C 83 % 1018,5 hPa 0,0 l/m² 0 min 0 min 0 W/m² 19,3 km/h (3 Bft) 97,87 %
23.11.2025 02:02 -1,3 °C -2,2 °C -5,6 °C 83 % 1018,5 hPa 0,0 l/m² 0 min 0 min 0 W/m² 19,3 km/h (3 Bft) 95,74 %
23.11.2025 02:04 -1,3 °C -2,2 °C -5,6 °C 83 % 1018,4 hPa 0,0 l/m² 0 min 0 min 0 W/m² 19,3 km/h (3 Bft) 93,88 %
23.11.2025 02:08 -1,3 °C -2,2 °C -5,6 °C 83 % 1018,4 hPa 0,0 l/m² 0 min 0 min 0 W/m² 22,5 km/h (4 Bft) 93,62 %
23.11.2025 02:10 -1,3 °C -2,2 °C -5,6 °C 83 % 1018,4 hPa 0,0 l/m² 0 min 0 min 0 W/m² 16,1 km/h (3 Bft) 93,62 %
23.11.2025 02:12 -1,3 °C -2,2 °C -5,6 °C 83 % 1018,3 hPa 0,0 l/m² 0 min 0 min 0 W/m² 12,9 km/h (3 Bft) 91,49 %
23.11.2025 02:14 -1,3 °C -2,2 °C -5,6 °C 83 % 1018,4 hPa 0,0 l/m² 0 min 0 min 0 W/m² 12,9 km/h (3 Bft) 89,36 %
23.11.2025 02:16 -1,4 °C -2,2 °C -5,6 °C 83 % 1018,3 hPa 0,0 l/m² 0 min 0 min 0 W/m² 16,1 km/h (3 Bft) 93,48 %
23.11.2025 02:18 -1,4 °C -2,2 °C -5,6 °C 83 % 1018,3 hPa 0,0 l/m² 0 min 0 min 0 W/m² 16,1 km/h (3 Bft) 91,11 %
23.11.2025 02:20 -1,4 °C -2,2 °C -5,6 °C 83 % 1018,3 hPa 0,0 l/m² 0 min 0 min 0 W/m² 16,1 km/h (3 Bft) 93,62 %
23.11.2025 02:22 -1,4 °C -2,2 °C -5,6 °C 83 % 1018,3 hPa 0,0 l/m² 0 min 0 min 0 W/m² 16,1 km/h (3 Bft) 91,11 %
23.11.2025 02:24 -1,4 °C -2,2 °C -5,6 °C 83 % 1018,2 hPa 0,0 l/m² 0 min 0 min 0 W/m² 16,1 km/h (3 Bft) 93,62 %
23.11.2025 02:26 -1,4 °C -2,2 °C -5,6 °C 83 % 1018,2 hPa 0,0 l/m² 0 min 0 min 0 W/m² 9,7 km/h (2 Bft) 93,48 %
23.11.2025 02:28 -1,4 °C -2,2 °C -5,6 °C 83 % 1018,1 hPa 0,0 l/m² 0 min 0 min 0 W/m² 16,1 km/h (3 Bft) 94,83 %
23.11.2025 02:30 -1,4 °C -2,2 °C -5,6 °C 83 % 1018,1 hPa 0,0 l/m² 0 min 0 min 0 W/m² 19,3 km/h (3 Bft) 92,50 %
23.11.2025 02:32 -1,4 °C -2,2 °C -5,6 °C 83 % 1018,0 hPa 0,0 l/m² 0 min 0 min 0 W/m² 16,1 km/h (3 Bft) 97,87 %
23.11.2025 02:34 -1,4 °C -2,2 °C -5,6 °C 83 % 1018,0 hPa 0,0 l/m² 0 min 0 min 0 W/m² 22,5 km/h (4 Bft) 95,74 %
23.11.2025 02:36 -1,4 °C -2,2 °C -5,6 °C 83 % 1018,0 hPa 0,0 l/m² 0 min 0 min 0 W/m² 16,1 km/h (3 Bft) 95,74 %
23.11.2025 02:38 -1,4 °C -2,2 °C -5,6 °C 83 % 1018,0 hPa 0,0 l/m² 0 min 0 min 0 W/m² 19,3 km/h (3 Bft) 95,65 %
23.11.2025 02:40 -1,4 °C -2,2 °C -5,6 °C 83 % 1018,0 hPa 0,0 l/m² 0 min 0 min 0 W/m² 19,3 km/h (3 Bft) 97,87 %
23.11.2025 02:42 -1,4 °C -2,2 °C -5,6 °C 83 % 1017,9 hPa 0,0 l/m² 0 min 0 min 0 W/m² 12,9 km/h (3 Bft) 95,74 %
23.11.2025 02:44 -1,4 °C -2,2 °C -5,6 °C 83 % 1017,9 hPa 0,0 l/m² 0 min 0 min 0 W/m² 12,9 km/h (3 Bft) 97,87 %
23.11.2025 02:46 -1,4 °C -2,2 °C -5,6 °C 83 % 1017,9 hPa 0,0 l/m² 0 min 0 min 0 W/m² 22,5 km/h (4 Bft) 97,87 %
23.11.2025 02:48 -1,4 °C -2,2 °C -5,6 °C 83 % 1017,9 hPa 0,0 l/m² 0 min 0 min 0 W/m² 16,1 km/h (3 Bft) 97,87 %
23.11.2025 02:50 -1,5 °C -2,2 °C -5,6 °C 83 % 1017,9 hPa 0,0 l/m² 0 min 0 min 0 W/m² 16,1 km/h (3 Bft) 97,83 %
23.11.2025 02:52 -1,5 °C -2,2 °C -5,6 °C 83 % 1017,8 hPa 0,0 l/m² 0 min 0 min 0 W/m² 19,3 km/h (3 Bft) 97,87 %
23.11.2025 02:54 -1,5 °C -2,2 °C -5,6 °C 83 % 1017,8 hPa 0,0 l/m² 0 min 0 min 0 W/m² 16,1 km/h (3 Bft) 93,62 %
23.11.2025 02:56 -1,5 °C -2,2 °C -5,6 °C 83 % 1017,7 hPa 0,0 l/m² 0 min 0 min 0 W/m² 16,1 km/h (3 Bft) 97,87 %
23.11.2025 02:58 -1,5 °C -2,2 °C -5,6 °C 83 % 1017,7 hPa 0,0 l/m² 0 min 0 min 0 W/m² 12,9 km/h (3 Bft) 100,00 %
23.11.2025 03:00 -1,5 °C -2,2 °C -5,6 °C 83 % 1017,6 hPa 0,0 l/m² 0 min 0 min 0 W/m² 16,1 km/h (3 Bft) 97,92 %
23.11.2025 03:02 -1,5 °C -2,2 °C -5,6 °C 83 % 1017,6 hPa 0,0 l/m² 0 min 0 min 0 W/m² 6,4 km/h (2 Bft) 95,83 %
23.11.2025 03:04 -1,5 °C -2,2 °C -5,6 °C 83 % 1017,5 hPa 0,0 l/m² 0 min 0 min 0 W/m² 12,9 km/h (3 Bft) 100,00 %
23.11.2025 03:10 -1,6 °C -2,2 °C -5,6 °C 83 % 1017,4 hPa 0,0 l/m² 0 min 0 min 0 W/m² 22,5 km/h (4 Bft) 99,31 %
23.11.2025 03:12 -1,6 °C -2,2 °C -5,6 °C 83 % 1017,3 hPa 0,0 l/m² 0 min 0 min 0 W/m² 12,9 km/h (3 Bft) 97,83 %
23.11.2025 03:14 -1,6 °C -2,2 °C -5,6 °C 83 % 1017,2 hPa 0,0 l/m² 0 min 0 min 0 W/m² 16,1 km/h (3 Bft) 100,00 %
23.11.2025 03:16 -1,6 °C -2,2 °C -5,6 °C 82 % 1017,2 hPa 0,0 l/m² 0 min 0 min 0 W/m² 19,3 km/h (3 Bft) 100,00 %
23.11.2025 03:18 -1,6 °C -2,2 °C -5,6 °C 82 % 1017,1 hPa 0,0 l/m² 0 min 0 min 0 W/m² 16,1 km/h (3 Bft) 97,87 %
23.11.2025 03:20 -1,6 °C -2,2 °C -5,6 °C 82 % 1017,1 hPa 0,0 l/m² 0 min 0 min 0 W/m² 12,9 km/h (3 Bft) 100,00 %
23.11.2025 03:22 -1,6 °C -2,2 °C -5,6 °C 82 % 1017,0 hPa 0,0 l/m² 0 min 0 min 0 W/m² 22,5 km/h (4 Bft) 100,00 %
23.11.2025 03:24 -1,6 °C -2,2 °C -5,6 °C 82 % 1017,0 hPa 0,0 l/m² 0 min 0 min 0 W/m² 12,9 km/h (3 Bft) 95,74 %
23.11.2025 03:26 -1,6 °C -2,2 °C -5,6 °C 82 % 1017,0 hPa 0,0 l/m² 0 min 0 min 0 W/m² 22,5 km/h (4 Bft) 97,83 %
23.11.2025 03:28 -1,6 °C -2,2 °C -5,6 °C 82 % 1017,0 hPa 0,0 l/m² 0 min 0 min 0 W/m² 19,3 km/h (3 Bft) 100,00 %
23.11.2025 03:30 -1,6 °C -2,2 °C -5,6 °C 82 % 1016,9 hPa 0,0 l/m² 0 min 0 min 0 W/m² 16,1 km/h (3 Bft) 100,00 %
23.11.2025 03:32 -1,6 °C -2,2 °C -5,6 °C 82 % 1016,9 hPa 0,0 l/m² 0 min 0 min 0 W/m² 16,1 km/h (3 Bft) 100,00 %
23.11.2025 03:34 -1,6 °C -2,2 °C -5,6 °C 82 % 1016,9 hPa 0,0 l/m² 0 min 0 min 0 W/m² 16,1 km/h (3 Bft) 100,00 %
23.11.2025 03:36 -1,5 °C -2,2 °C -5,6 °C 82 % 1016,8 hPa 0,0 l/m² 0 min 0 min 0 W/m² 29,0 km/h (5 Bft) 100,00 %
23.11.2025 03:38 -1,5 °C -2,2 °C -5,6 °C 82 % 1016,7 hPa 0,0 l/m² 0 min 0 min 0 W/m² 29,0 km/h (5 Bft) 97,87 %
23.11.2025 03:40 -1,5 °C -2,2 °C -5,6 °C 82 % 1016,8 hPa 0,0 l/m² 0 min 0 min 0 W/m² 25,7 km/h (4 Bft) 97,83 %
23.11.2025 03:42 -1,5 °C -2,2 °C -5,6 °C 82 % 1016,7 hPa 0,0 l/m² 0 min 0 min 0 W/m² 19,3 km/h (3 Bft) 100,00 %
23.11.2025 03:44 -1,5 °C -2,2 °C -5,6 °C 82 % 1016,6 hPa 0,0 l/m² 0 min 0 min 0 W/m² 22,5 km/h (4 Bft) 100,00 %
23.11.2025 03:46 -1,5 °C -2,2 °C -5,6 °C 82 % 1016,6 hPa 0,0 l/m² 0 min 0 min 0 W/m² 19,3 km/h (3 Bft) 100,00 %
23.11.2025 03:48 -1,5 °C -2,2 °C -5,6 °C 82 % 1016,6 hPa 0,0 l/m² 0 min 0 min 0 W/m² 16,1 km/h (3 Bft) 52,17 %
23.11.2025 03:50 -1,5 °C -2,2 °C -5,6 °C 81 % 1016,5 hPa 0,0 l/m² 0 min 0 min 0 W/m² 22,5 km/h (4 Bft) 100,00 %
23.11.2025 03:52 -1,5 °C -2,2 °C -5,6 °C 81 % 1016,5 hPa 0,0 l/m² 0 min 0 min 0 W/m² 25,7 km/h (4 Bft) 100,00 %
23.11.2025 03:54 -1,4 °C -2,2 °C -5,6 °C 81 % 1016,5 hPa 0,0 l/m² 0 min 0 min 0 W/m² 12,9 km/h (3 Bft) 97,87 %
23.11.2025 03:56 -1,4 °C -2,2 °C -5,6 °C 81 % 1016,4 hPa 0,0 l/m² 0 min 0 min 0 W/m² 25,7 km/h (4 Bft) 95,12 %
23.11.2025 03:58 -1,4 °C -2,2 °C -5,6 °C 81 % 1016,3 hPa 0,0 l/m² 0 min 0 min 0 W/m² 16,1 km/h (3 Bft) 96,23 %
23.11.2025 04:00 -1,4 °C -2,2 °C -5,6 °C 81 % 1016,3 hPa 0,0 l/m² 0 min 0 min 0 W/m² 25,7 km/h (4 Bft) 97,87 %
23.11.2025 04:06 -1,4 °C -2,2 °C -5,6 °C 81 % 1016,3 hPa 0,0 l/m² 0 min 0 min 0 W/m² 22,5 km/h (4 Bft) 98,80 %
23.11.2025 04:07 -1,4 °C -2,2 °C -5,6 °C 81 % 1016,2 hPa 0,0 l/m² 0 min 0 min 0 W/m² 19,3 km/h (3 Bft) 94,44 %
23.11.2025 04:10 -1,4 °C -1,7 °C -5,6 °C 80 % 1016,1 hPa 0,0 l/m² 0 min 0 min 0 W/m² 16,1 km/h (3 Bft) 96,86 %
23.11.2025 04:12 -1,3 °C -1,7 °C -5,6 °C 80 % 1016,1 hPa 0,0 l/m² 0 min 0 min 0 W/m² 29,0 km/h (5 Bft) 94,20 %
23.11.2025 04:14 -1,3 °C -1,7 °C -5,6 °C 80 % 1016,0 hPa 0,0 l/m² 0 min 0 min 0 W/m² 22,5 km/h (4 Bft) 95,65 %
23.11.2025 04:16 -1,3 °C -1,7 °C -5,6 °C 80 % 1016,0 hPa 0,0 l/m² 0 min 0 min 0 W/m² 16,1 km/h (3 Bft) 95,92 %
23.11.2025 04:18 -1,3 °C -1,7 °C -5,6 °C 80 % 1016,0 hPa 0,0 l/m² 0 min 0 min 0 W/m² 22,5 km/h (4 Bft) 95,65 %
23.11.2025 04:20 -1,3 °C -1,7 °C -5,6 °C 80 % 1015,9 hPa 0,0 l/m² 0 min 0 min 0 W/m² 12,9 km/h (3 Bft) 95,92 %
23.11.2025 04:22 -1,3 °C -1,7 °C -5,6 °C 80 % 1015,9 hPa 0,0 l/m² 0 min 0 min 0 W/m² 19,3 km/h (3 Bft) 95,56 %
23.11.2025 04:24 -1,3 °C -1,7 °C -5,0 °C 80 % 1015,9 hPa 0,0 l/m² 0 min 0 min 0 W/m² 22,5 km/h (4 Bft) 95,65 %
23.11.2025 04:26 -1,3 °C -1,7 °C -5,0 °C 80 % 1015,9 hPa 0,0 l/m² 0 min 0 min 0 W/m² 22,5 km/h (4 Bft) 97,83 %
23.11.2025 04:28 -1,2 °C -1,7 °C -5,0 °C 80 % 1015,9 hPa 0,0 l/m² 0 min 0 min 0 W/m² 16,1 km/h (3 Bft) 100,00 %
23.11.2025 04:30 -1,2 °C -1,7 °C -5,0 °C 80 % 1016,0 hPa 0,0 l/m² 0 min 0 min 0 W/m² 19,3 km/h (3 Bft) 95,74 %
23.11.2025 04:32 -1,2 °C -1,7 °C -5,0 °C 79 % 1015,9 hPa 0,0 l/m² 0 min 0 min 0 W/m² 16,1 km/h (3 Bft) 95,74 %
23.11.2025 04:34 -1,2 °C -1,7 °C -5,0 °C 79 % 1015,8 hPa 0,0 l/m² 0 min 0 min 0 W/m² 22,5 km/h (4 Bft) 95,74 %
23.11.2025 04:36 -1,2 °C -1,7 °C -5,0 °C 79 % 1015,9 hPa 0,0 l/m² 0 min 0 min 0 W/m² 16,1 km/h (3 Bft) 97,83 %
23.11.2025 04:38 -1,2 °C -1,7 °C -5,0 °C 79 % 1015,9 hPa 0,0 l/m² 0 min 0 min 0 W/m² 16,1 km/h (3 Bft) 95,74 %
23.11.2025 04:40 -1,2 °C -1,7 °C -5,0 °C 79 % 1015,8 hPa 0,0 l/m² 0 min 0 min 0 W/m² 25,7 km/h (4 Bft) 97,83 %
23.11.2025 04:42 -1,2 °C -1,7 °C -5,0 °C 79 % 1015,8 hPa 0,0 l/m² 0 min 0 min 0 W/m² 19,3 km/h (3 Bft) 98,21 %
23.11.2025 04:44 -1,2 °C -1,7 °C -5,0 °C 79 % 1015,7 hPa 0,0 l/m² 0 min 0 min 0 W/m² 19,3 km/h (3 Bft) 97,44 %
23.11.2025 04:46 -1,2 °C -1,7 °C -5,0 °C 79 % 1015,7 hPa 0,0 l/m² 0 min 0 min 0 W/m² 19,3 km/h (3 Bft) 97,87 %
23.11.2025 04:48 -1,2 °C -1,7 °C -5,0 °C 79 % 1015,7 hPa 0,0 l/m² 0 min 0 min 0 W/m² 19,3 km/h (3 Bft) 100,00 %
23.11.2025 04:50 -1,2 °C -1,7 °C -5,0 °C 79 % 1015,7 hPa 0,0 l/m² 0 min 0 min 0 W/m² 22,5 km/h (4 Bft) 97,22 %
23.11.2025 04:52 -1,1 °C -1,7 °C -5,0 °C 79 % 1015,7 hPa 0,0 l/m² 0 min 0 min 0 W/m² 25,7 km/h (4 Bft) 100,00 %
23.11.2025 04:54 -1,1 °C -1,7 °C -5,0 °C 79 % 1015,6 hPa 0,0 l/m² 0 min 0 min 0 W/m² 29,0 km/h (5 Bft) 100,00 %
23.11.2025 04:56 -1,1 °C -1,7 °C -5,0 °C 79 % 1015,6 hPa 0,0 l/m² 0 min 0 min 0 W/m² 16,1 km/h (3 Bft) 100,00 %
23.11.2025 04:58 -1,1 °C -1,7 °C -5,0 °C 79 % 1015,7 hPa 0,0 l/m² 0 min 0 min 0 W/m² 22,5 km/h (4 Bft) 100,00 %
23.11.2025 05:00 -1,1 °C -1,7 °C -5,0 °C 79 % 1015,6 hPa 0,0 l/m² 0 min 0 min 0 W/m² 19,3 km/h (3 Bft) 100,00 %
23.11.2025 05:02 -1,1 °C -1,7 °C -5,0 °C 78 % 1015,6 hPa 0,0 l/m² 0 min 0 min 0 W/m² 25,7 km/h (4 Bft) 100,00 %
23.11.2025 05:04 -1,1 °C -1,7 °C -5,0 °C 78 % 1015,5 hPa 0,0 l/m² 0 min 0 min 0 W/m² 25,7 km/h (4 Bft) 98,00 %
23.11.2025 05:06 -1,1 °C -1,7 °C -5,0 °C 78 % 1015,6 hPa 0,0 l/m² 0 min 0 min 0 W/m² 22,5 km/h (4 Bft) 98,15 %
23.11.2025 05:08 -1,1 °C -1,7 °C -5,0 °C 78 % 1015,5 hPa 0,0 l/m² 0 min 0 min 0 W/m² 22,5 km/h (4 Bft) 97,56 %
23.11.2025 05:10 -1,1 °C -1,7 °C -5,0 °C 78 % 1015,5 hPa 0,0 l/m² 0 min 0 min 0 W/m² 29,0 km/h (5 Bft) 97,92 %
23.11.2025 05:12 -1,1 °C -1,7 °C -5,0 °C 78 % 1015,5 hPa 0,0 l/m² 0 min 0 min 0 W/m² 25,7 km/h (4 Bft) 97,62 %
23.11.2025 05:14 -1,1 °C -1,7 °C -5,0 °C 78 % 1015,5 hPa 0,0 l/m² 0 min 0 min 0 W/m² 25,7 km/h (4 Bft) 96,15 %
23.11.2025 05:16 -1,1 °C -1,7 °C -5,0 °C 78 % 1015,4 hPa 0,0 l/m² 0 min 0 min 0 W/m² 22,5 km/h (4 Bft) 98,00 %
23.11.2025 05:18 -1,1 °C -1,7 °C -5,0 °C 78 % 1015,4 hPa 0,0 l/m² 0 min 0 min 0 W/m² 19,3 km/h (3 Bft) 94,29 %
23.11.2025 05:20 -1,1 °C -1,7 °C -5,0 °C 78 % 1015,4 hPa 0,0 l/m² 0 min 0 min 0 W/m² 22,5 km/h (4 Bft) 98,18 %
23.11.2025 05:22 -1,1 °C -1,7 °C -5,0 °C 78 % 1015,3 hPa 0,0 l/m² 0 min 0 min 0 W/m² 22,5 km/h (4 Bft) 96,00 %
23.11.2025 05:24 -1,1 °C -1,7 °C -5,0 °C 78 % 1015,3 hPa 0,0 l/m² 0 min 0 min 0 W/m² 25,7 km/h (4 Bft) 94,29 %
23.11.2025 05:26 -1,2 °C -1,7 °C -5,0 °C 78 % 1015,2 hPa 0,0 l/m² 0 min 0 min 0 W/m² 25,7 km/h (4 Bft) 96,43 %
23.11.2025 05:28 -1,2 °C -1,7 °C -5,0 °C 78 % 1015,2 hPa 0,0 l/m² 0 min 0 min 0 W/m² 22,5 km/h (4 Bft) 96,00 %
23.11.2025 05:30 -1,2 °C -1,7 °C -5,0 °C 78 % 1015,2 hPa 0,0 l/m² 0 min 0 min 0 W/m² 25,7 km/h (4 Bft) 97,14 %
23.11.2025 05:32 -1,2 °C -1,7 °C -5,0 °C 78 % 1015,2 hPa 0,0 l/m² 0 min 0 min 0 W/m² 22,5 km/h (4 Bft) 96,43 %
23.11.2025 05:34 -1,2 °C -1,7 °C -5,0 °C 78 % 1015,2 hPa 0,0 l/m² 0 min 0 min 0 W/m² 22,5 km/h (4 Bft) 93,88 %
23.11.2025 05:36 -1,2 °C -1,7 °C -5,0 °C 78 % 1015,2 hPa 0,0 l/m² 0 min 0 min 0 W/m² 22,5 km/h (4 Bft) 97,14 %
23.11.2025 05:38 -1,2 °C -1,7 °C -5,0 °C 78 % 1015,2 hPa 0,0 l/m² 0 min 0 min 0 W/m² 22,5 km/h (4 Bft) 96,49 %
23.11.2025 05:40 -1,2 °C -1,7 °C -5,0 °C 78 % 1015,1 hPa 0,0 l/m² 0 min 0 min 0 W/m² 22,5 km/h (4 Bft) 97,30 %
23.11.2025 05:42 -1,2 °C -1,7 °C -5,0 °C 78 % 1015,1 hPa 0,0 l/m² 0 min 0 min 0 W/m² 32,2 km/h (5 Bft) 96,36 %
23.11.2025 05:44 -1,2 °C -1,7 °C -5,0 °C 78 % 1015,1 hPa 0,0 l/m² 0 min 0 min 0 W/m² 19,3 km/h (3 Bft) 96,00 %
23.11.2025 05:46 -1,2 °C -1,7 °C -5,0 °C 78 % 1015,0 hPa 0,0 l/m² 0 min 0 min 0 W/m² 25,7 km/h (4 Bft) 95,24 %
23.11.2025 05:48 -1,1 °C -1,7 °C -5,0 °C 78 % 1015,0 hPa 0,0 l/m² 0 min 0 min 0 W/m² 32,2 km/h (5 Bft) 94,23 %
23.11.2025 05:50 -1,1 °C -1,7 °C -5,0 °C 78 % 1015,0 hPa 0,0 l/m² 0 min 0 min 0 W/m² 25,7 km/h (4 Bft) 95,24 %
23.11.2025 05:52 -1,1 °C -1,7 °C -5,0 °C 78 % 1015,0 hPa 0,0 l/m² 0 min 0 min 0 W/m² 22,5 km/h (4 Bft) 96,15 %
23.11.2025 05:54 -1,2 °C -1,7 °C -5,0 °C 78 % 1015,0 hPa 0,0 l/m² 0 min 0 min 0 W/m² 22,5 km/h (4 Bft) 94,74 %
23.11.2025 05:56 -1,1 °C -1,7 °C -5,0 °C 78 % 1015,0 hPa 0,0 l/m² 0 min 0 min 0 W/m² 19,3 km/h (3 Bft) 96,30 %
23.11.2025 05:58 -1,2 °C -1,7 °C -5,0 °C 78 % 1015,0 hPa 0,0 l/m² 0 min 0 min 0 W/m² 25,7 km/h (4 Bft) 94,87 %
23.11.2025 06:00 -1,1 °C -1,7 °C -5,0 °C 78 % 1015,0 hPa 0,0 l/m² 0 min 0 min 0 W/m² 22,5 km/h (4 Bft) 95,74 %
23.11.2025 06:02 -1,2 °C -1,7 °C -5,0 °C 78 % 1014,9 hPa 0,0 l/m² 0 min 0 min 0 W/m² 16,1 km/h (3 Bft) 95,74 %
23.11.2025 06:04 -1,2 °C -1,7 °C -5,0 °C 78 % 1014,9 hPa 0,0 l/m² 0 min 0 min 0 W/m² 22,5 km/h (4 Bft) 98,00 %
23.11.2025 06:08 -1,2 °C -1,7 °C -5,0 °C 78 % 1014,8 hPa 0,0 l/m² 0 min 0 min 0 W/m² 22,5 km/h (4 Bft) 96,81 %
23.11.2025 06:10 -1,2 °C -1,7 °C -5,0 °C 78 % 1014,8 hPa 0,0 l/m² 0 min 0 min 0 W/m² 19,3 km/h (3 Bft) 97,73 %
23.11.2025 06:12 -1,2 °C -1,7 °C -5,0 °C 78 % 1014,8 hPa 0,0 l/m² 0 min 0 min 0 W/m² 29,0 km/h (5 Bft) 97,96 %
23.11.2025 06:14 -1,2 °C -1,7 °C -5,0 °C 78 % 1014,8 hPa 0,0 l/m² 0 min 0 min 0 W/m² 22,5 km/h (4 Bft) 100,00 %
23.11.2025 06:16 -1,2 °C -1,7 °C -5,0 °C 78 % 1014,8 hPa 0,0 l/m² 0 min 0 min 0 W/m² 19,3 km/h (3 Bft) 92,31 %
23.11.2025 06:18 -1,2 °C -1,7 °C -5,6 °C 78 % 1014,8 hPa 0,0 l/m² 0 min 0 min 0 W/m² 22,5 km/h (4 Bft) 100,00 %
23.11.2025 06:20 -1,2 °C -1,7 °C -5,0 °C 78 % 1014,7 hPa 0,0 l/m² 0 min 0 min 0 W/m² 22,5 km/h (4 Bft) 100,00 %
23.11.2025 06:22 -1,2 °C -1,7 °C -5,0 °C 78 % 1014,7 hPa 0,0 l/m² 0 min 0 min 0 W/m² 22,5 km/h (4 Bft) 100,00 %
23.11.2025 06:24 -1,2 °C -1,7 °C -5,0 °C 78 % 1014,7 hPa 0,0 l/m² 0 min 0 min 0 W/m² 19,3 km/h (3 Bft) 100,00 %
23.11.2025 06:26 -1,2 °C -1,7 °C -5,6 °C 78 % 1014,7 hPa 0,0 l/m² 0 min 0 min 0 W/m² 19,3 km/h (3 Bft) 98,00 %
23.11.2025 06:28 -1,2 °C -1,7 °C -5,6 °C 78 % 1014,7 hPa 0,0 l/m² 0 min 0 min 0 W/m² 16,1 km/h (3 Bft) 100,00 %
23.11.2025 06:30 -1,2 °C -1,7 °C -5,0 °C 78 % 1014,6 hPa 0,0 l/m² 0 min 0 min 0 W/m² 29,0 km/h (5 Bft) 98,04 %
23.11.2025 06:32 -1,2 °C -1,7 °C -5,0 °C 78 % 1014,6 hPa 0,0 l/m² 0 min 0 min 0 W/m² 19,3 km/h (3 Bft) 95,45 %
23.11.2025 06:34 -1,2 °C -1,7 °C -5,0 °C 78 % 1014,6 hPa 0,0 l/m² 0 min 0 min 0 W/m² 22,5 km/h (4 Bft) 93,88 %
23.11.2025 06:36 -1,2 °C -1,7 °C -5,0 °C 78 % 1014,6 hPa 0,0 l/m² 0 min 0 min 0 W/m² 22,5 km/h (4 Bft) 97,87 %
23.11.2025 06:38 -1,2 °C -1,7 °C -5,0 °C 78 % 1014,5 hPa 0,0 l/m² 0 min 0 min 0 W/m² 25,7 km/h (4 Bft) 97,78 %
23.11.2025 06:40 -1,2 °C -1,7 °C -5,0 °C 78 % 1014,5 hPa 0,0 l/m² 0 min 0 min 0 W/m² 16,1 km/h (3 Bft) 97,96 %
23.11.2025 06:42 -1,2 °C -1,7 °C -5,0 °C 78 % 1014,5 hPa 0,0 l/m² 0 min 0 min 0 W/m² 19,3 km/h (3 Bft) 97,83 %
23.11.2025 06:44 -1,2 °C -1,7 °C -5,0 °C 78 % 1014,5 hPa 0,0 l/m² 0 min 0 min 0 W/m² 25,7 km/h (4 Bft) 96,00 %
23.11.2025 06:46 -1,2 °C -1,7 °C -5,0 °C 78 % 1014,5 hPa 0,0 l/m² 0 min 0 min 0 W/m² 22,5 km/h (4 Bft) 97,87 %
23.11.2025 06:48 -1,2 °C -1,7 °C -5,0 °C 78 % 1014,4 hPa 0,0 l/m² 0 min 0 min 0 W/m² 19,3 km/h (3 Bft) 97,83 %
23.11.2025 06:50 -1,2 °C -1,7 °C -5,0 °C 78 % 1014,5 hPa 0,0 l/m² 0 min 0 min 0 W/m² 22,5 km/h (4 Bft) 97,87 %
23.11.2025 06:52 -1,1 °C -1,7 °C -5,0 °C 78 % 1014,3 hPa 0,0 l/m² 0 min 0 min 0 W/m² 12,9 km/h (3 Bft) 94,44 %
23.11.2025 06:57 -1,1 °C -1,7 °C -5,0 °C 78 % 1014,3 hPa 0,0 l/m² 0 min 0 min 0 W/m² 25,7 km/h (4 Bft) 94,74 %
23.11.2025 06:58 -1,1 °C -1,7 °C -5,0 °C 78 % 1014,3 hPa 0,0 l/m² 0 min 0 min 0 W/m² 22,5 km/h (4 Bft) 100,00 %
23.11.2025 07:00 -1,1 °C -1,7 °C -5,0 °C 78 % 1014,3 hPa 0,0 l/m² 0 min 0 min 0 W/m² 22,5 km/h (4 Bft) 95,24 %
23.11.2025 07:02 -1,1 °C -1,7 °C -5,0 °C 78 % 1014,3 hPa 0,0 l/m² 0 min 0 min 0 W/m² 19,3 km/h (3 Bft) 98,08 %
23.11.2025 07:04 -1,1 °C -1,7 °C -5,0 °C 78 % 1014,3 hPa 0,0 l/m² 0 min 0 min 0 W/m² 19,3 km/h (3 Bft) 96,00 %
23.11.2025 07:08 -1,1 °C -1,7 °C -5,0 °C 78 % 1014,3 hPa 0,0 l/m² 0 min 0 min 0 W/m² 19,3 km/h (3 Bft) 95,06 %
23.11.2025 07:10 -1,1 °C -1,7 °C -5,0 °C 78 % 1014,4 hPa 0,0 l/m² 0 min 0 min 0 W/m² 22,5 km/h (4 Bft) 93,22 %
23.11.2025 07:12 -1,1 °C -1,7 °C -5,0 °C 78 % 1014,3 hPa 0,0 l/m² 0 min 0 min 0 W/m² 19,3 km/h (3 Bft) 97,83 %
23.11.2025 07:14 -1,1 °C -1,7 °C -5,0 °C 78 % 1014,2 hPa 0,0 l/m² 0 min 0 min 0 W/m² 19,3 km/h (3 Bft) 100,00 %
23.11.2025 07:16 -1,1 °C -1,7 °C -5,0 °C 78 % 1014,2 hPa 0,0 l/m² 0 min 0 min 0 W/m² 19,3 km/h (3 Bft) 100,00 %
23.11.2025 07:18 -1,1 °C -1,7 °C -5,0 °C 78 % 1014,3 hPa 0,0 l/m² 0 min 0 min 0 W/m² 16,1 km/h (3 Bft) 100,00 %
23.11.2025 07:20 -1,1 °C -1,7 °C -5,0 °C 78 % 1014,3 hPa 0,0 l/m² 0 min 0 min 0 W/m² 16,1 km/h (3 Bft) 98,28 %
23.11.2025 07:22 -1,1 °C -1,7 °C -5,0 °C 78 % 1014,3 hPa 0,0 l/m² 0 min 0 min 0 W/m² 16,1 km/h (3 Bft) 97,87 %
23.11.2025 07:24 -1,1 °C -1,7 °C -5,0 °C 78 % 1014,3 hPa 0,0 l/m² 0 min 0 min 0 W/m² 16,1 km/h (3 Bft) 97,87 %
23.11.2025 07:26 -1,1 °C -1,7 °C -5,0 °C 78 % 1014,3 hPa 0,0 l/m² 0 min 0 min 0 W/m² 19,3 km/h (3 Bft) 95,74 %
23.11.2025 07:28 -1,1 °C -1,7 °C -5,0 °C 79 % 1014,3 hPa 0,0 l/m² 0 min 0 min 0 W/m² 16,1 km/h (3 Bft) 95,65 %
23.11.2025 07:30 -1,1 °C -1,7 °C -5,0 °C 79 % 1014,3 hPa 0,0 l/m² 0 min 0 min 0 W/m² 16,1 km/h (3 Bft) 97,87 %
23.11.2025 07:32 -1,1 °C -1,7 °C -5,0 °C 79 % 1014,3 hPa 0,0 l/m² 0 min 0 min 0 W/m² 19,3 km/h (3 Bft) 100,00 %
23.11.2025 07:34 -1,1 °C -1,7 °C -5,0 °C 79 % 1014,3 hPa 0,0 l/m² 0 min 0 min 0 W/m² 19,3 km/h (3 Bft) 100,00 %
23.11.2025 07:36 -1,1 °C -1,7 °C -5,0 °C 79 % 1014,3 hPa 0,0 l/m² 0 min 0 min 0 W/m² 16,1 km/h (3 Bft) 97,83 %
23.11.2025 07:38 -1,1 °C -1,7 °C -5,0 °C 79 % 1014,4 hPa 0,0 l/m² 0 min 0 min 0 W/m² 12,9 km/h (3 Bft) 95,74 %
23.11.2025 07:40 -1,1 °C -1,7 °C -5,0 °C 79 % 1014,2 hPa 0,0 l/m² 0 min 0 min 0 W/m² 19,3 km/h (3 Bft) 98,00 %
23.11.2025 07:42 -1,1 °C -1,7 °C -5,0 °C 79 % 1014,2 hPa 0,0 l/m² 0 min 0 min 0 W/m² 22,5 km/h (4 Bft) 97,22 %
23.11.2025 07:44 -1,1 °C -1,7 °C -5,0 °C 79 % 1014,1 hPa 0,0 l/m² 0 min 0 min 0 W/m² 12,9 km/h (3 Bft) 98,25 %
23.11.2025 07:46 -1,1 °C -1,7 °C -5,0 °C 79 % 1014,0 hPa 0,0 l/m² 0 min 0 min 0 W/m² 12,9 km/h (3 Bft) 36,36 %
23.11.2025 07:48 -1,1 °C -1,7 °C -5,0 °C 79 % 1014,1 hPa 0,0 l/m² 0 min 0 min 0 W/m² 19,3 km/h (3 Bft) 98,04 %
23.11.2025 07:50 -1,1 °C -1,7 °C -5,0 °C 80 % 1014,1 hPa 0,0 l/m² 0 min 0 min 0 W/m² 12,9 km/h (3 Bft) 100,00 %
23.11.2025 07:52 -1,1 °C -1,7 °C -5,0 °C 79 % 1014,0 hPa 0,0 l/m² 0 min 0 min 0 W/m² 19,3 km/h (3 Bft) 97,87 %
23.11.2025 07:54 -1,1 °C -1,7 °C -5,0 °C 80 % 1013,9 hPa 0,0 l/m² 0 min 0 min 0 W/m² 16,1 km/h (3 Bft) 95,92 %
23.11.2025 07:56 -1,1 °C -1,7 °C -5,0 °C 80 % 1013,9 hPa 0,0 l/m² 0 min 0 min 0 W/m² 16,1 km/h (3 Bft) 100,00 %
23.11.2025 07:58 -1,1 °C -1,7 °C -5,0 °C 80 % 1013,9 hPa 0,0 l/m² 0 min 0 min 0 W/m² 19,3 km/h (3 Bft) 96,00 %
23.11.2025 08:00 -1,1 °C -1,7 °C -5,0 °C 80 % 1013,9 hPa 0,0 l/m² 0 min 0 min 0 W/m² 22,5 km/h (4 Bft) 98,18 %
23.11.2025 08:02 -1,1 °C -1,7 °C -5,0 °C 80 % 1013,9 hPa 0,0 l/m² 0 min 0 min 0 W/m² 16,1 km/h (3 Bft) 97,44 %
23.11.2025 08:04 -1,1 °C -1,7 °C -5,0 °C 80 % 1013,9 hPa 0,0 l/m² 0 min 0 min 0 W/m² 22,5 km/h (4 Bft) 97,96 %
23.11.2025 08:06 -1,1 °C -1,7 °C -5,0 °C 80 % 1013,7 hPa 0,0 l/m² 0 min 0 min 0 W/m² 29,0 km/h (5 Bft) 100,00 %
23.11.2025 08:08 -1,1 °C -1,7 °C -5,0 °C 80 % 1013,7 hPa 0,0 l/m² 0 min 0 min 0 W/m² 19,3 km/h (3 Bft) 100,00 %
23.11.2025 08:10 -1,1 °C -1,7 °C -5,0 °C 81 % 1013,7 hPa 0,0 l/m² 0 min 0 min 0 W/m² 19,3 km/h (3 Bft) 95,65 %
23.11.2025 08:12 -1,1 °C -1,7 °C -5,0 °C 81 % 1013,7 hPa 0,0 l/m² 0 min 0 min 0 W/m² 16,1 km/h (3 Bft) 97,92 %
23.11.2025 08:14 -1,1 °C -1,7 °C -5,0 °C 81 % 1013,7 hPa 0,0 l/m² 0 min 0 min 0 W/m² 19,3 km/h (3 Bft) 97,73 %
23.11.2025 08:16 -1,1 °C -1,7 °C -5,0 °C 81 % 1013,7 hPa 0,0 l/m² 0 min 0 min 0 W/m² 19,3 km/h (3 Bft) 100,00 %
23.11.2025 08:18 -1,2 °C -1,7 °C -5,0 °C 81 % 1013,6 hPa 0,0 l/m² 0 min 0 min 0 W/m² 16,1 km/h (3 Bft) 97,87 %
23.11.2025 08:20 -1,2 °C -1,7 °C -5,0 °C 81 % 1013,6 hPa 0,0 l/m² 0 min 0 min 0 W/m² 19,3 km/h (3 Bft) 93,48 %
23.11.2025 08:22 -1,2 °C -1,7 °C -5,0 °C 81 % 1013,6 hPa 0,0 l/m² 0 min 0 min 0 W/m² 22,5 km/h (4 Bft) 97,92 %
23.11.2025 08:24 -1,2 °C -1,7 °C -5,0 °C 81 % 1013,5 hPa 0,0 l/m² 0 min 0 min 0 W/m² 29,0 km/h (5 Bft) 97,73 %
23.11.2025 08:26 -1,2 °C -1,7 °C -5,0 °C 81 % 1013,5 hPa 0,0 l/m² 0 min 0 min 0 W/m² 19,3 km/h (3 Bft) 60,00 %
23.11.2025 08:28 -1,2 °C -1,7 °C -5,0 °C 81 % 1013,5 hPa 0,0 l/m² 0 min 0 min 3 W/m² 25,7 km/h (4 Bft) 96,55 %
23.11.2025 08:30 -1,2 °C -1,7 °C -5,0 °C 81 % 1013,4 hPa 0,0 l/m² 0 min 0 min 5 W/m² 16,1 km/h (3 Bft) 96,55 %
23.11.2025 08:32 -1,2 °C -1,7 °C -5,0 °C 81 % 1013,3 hPa 0,0 l/m² 0 min 0 min 5 W/m² 16,1 km/h (3 Bft) 97,62 %
23.11.2025 08:34 -1,2 °C -1,7 °C -5,0 °C 81 % 1013,3 hPa 0,0 l/m² 0 min 0 min 5 W/m² 22,5 km/h (4 Bft) 96,15 %
23.11.2025 08:36 -1,2 °C -1,7 °C -5,0 °C 81 % 1013,2 hPa 0,0 l/m² 0 min 0 min 5 W/m² 19,3 km/h (3 Bft) 95,35 %
23.11.2025 08:38 -1,2 °C -1,7 °C -5,0 °C 81 % 1013,1 hPa 0,0 l/m² 0 min 0 min 5 W/m² 16,1 km/h (3 Bft) 98,04 %
23.11.2025 08:40 -1,1 °C -1,7 °C -5,0 °C 81 % 1013,1 hPa 0,0 l/m² 0 min 0 min 5 W/m² 16,1 km/h (3 Bft) 97,78 %
23.11.2025 08:42 -1,1 °C -1,7 °C -5,0 °C 81 % 1013,0 hPa 0,0 l/m² 0 min 0 min 7 W/m² 16,1 km/h (3 Bft) 95,83 %
23.11.2025 08:44 -1,1 °C -1,7 °C -5,0 °C 81 % 1012,9 hPa 0,0 l/m² 0 min 0 min 7 W/m² 16,1 km/h (3 Bft) 95,74 %
23.11.2025 08:46 -1,1 °C -1,7 °C -5,0 °C 81 % 1012,9 hPa 0,0 l/m² 0 min 0 min 7 W/m² 19,3 km/h (3 Bft) 97,67 %
23.11.2025 08:48 -1,1 °C -1,7 °C -5,0 °C 81 % 1012,8 hPa 0,0 l/m² 0 min 0 min 8 W/m² 16,1 km/h (3 Bft) 98,04 %
23.11.2025 08:50 -1,1 °C -1,7 °C -5,0 °C 80 % 1012,8 hPa 0,0 l/m² 0 min 0 min 9 W/m² 19,3 km/h (3 Bft) 97,83 %
23.11.2025 08:52 -1,1 °C -1,1 °C -5,0 °C 80 % 1012,8 hPa 0,0 l/m² 0 min 0 min 9 W/m² 12,9 km/h (3 Bft) 92,86 %
23.11.2025 08:54 -1,0 °C -1,1 °C -5,0 °C 80 % 1012,8 hPa 0,0 l/m² 0 min 0 min 11 W/m² 12,9 km/h (3 Bft) 96,15 %
23.11.2025 08:56 -1,0 °C -1,1 °C -5,0 °C 80 % 1012,7 hPa 0,0 l/m² 0 min 0 min 15 W/m² 19,3 km/h (3 Bft) 95,65 %
23.11.2025 08:58 -1,0 °C -1,1 °C -5,0 °C 80 % 1012,7 hPa 0,0 l/m² 0 min 0 min 16 W/m² 12,9 km/h (3 Bft) 91,11 %
23.11.2025 09:00 -0,9 °C -1,1 °C -5,0 °C 80 % 1012,6 hPa 0,0 l/m² 0 min 0 min 18 W/m² 25,7 km/h (4 Bft) 96,00 %
23.11.2025 09:02 -0,9 °C -1,1 °C -5,0 °C 80 % 1012,6 hPa 0,0 l/m² 0 min 0 min 19 W/m² 19,3 km/h (3 Bft) 95,74 %
23.11.2025 09:04 -0,9 °C -1,1 °C -4,4 °C 79 % 1012,6 hPa 0,0 l/m² 0 min 0 min 19 W/m² 19,3 km/h (3 Bft) 97,67 %
23.11.2025 09:06 -0,9 °C -1,1 °C -4,4 °C 79 % 1012,6 hPa 0,0 l/m² 0 min 0 min 22 W/m² 12,9 km/h (3 Bft) 98,08 %
23.11.2025 09:08 -0,9 °C -1,1 °C -4,4 °C 79 % 1012,6 hPa 0,0 l/m² 0 min 0 min 24 W/m² 19,3 km/h (3 Bft) 95,83 %
23.11.2025 09:10 -0,8 °C -1,1 °C -4,4 °C 79 % 1012,5 hPa 0,0 l/m² 0 min 0 min 30 W/m² 16,1 km/h (3 Bft) 95,56 %
23.11.2025 09:12 -0,8 °C -1,1 °C -4,4 °C 79 % 1012,5 hPa 0,0 l/m² 0 min 0 min 38 W/m² 16,1 km/h (3 Bft) 97,44 %
23.11.2025 09:14 -0,8 °C -1,1 °C -4,4 °C 79 % 1012,4 hPa 0,0 l/m² 0 min 0 min 48 W/m² 16,1 km/h (3 Bft) 96,49 %
23.11.2025 09:16 -0,7 °C -0,6 °C -4,4 °C 78 % 1012,4 hPa 0,0 l/m² 0 min 0 min 54 W/m² 19,3 km/h (3 Bft) 97,62 %
23.11.2025 09:18 -0,7 °C -0,6 °C -4,4 °C 78 % 1012,4 hPa 0,0 l/m² 0 min 0 min 56 W/m² 22,5 km/h (4 Bft) 96,23 %
23.11.2025 09:20 -0,7 °C -0,6 °C -4,4 °C 78 % 1012,4 hPa 0,0 l/m² 0 min 0 min 54 W/m² 19,3 km/h (3 Bft) 97,67 %
23.11.2025 09:22 -0,7 °C -0,6 °C -4,4 °C 78 % 1012,2 hPa 0,0 l/m² 0 min 0 min 53 W/m² 16,1 km/h (3 Bft) 97,44 %
23.11.2025 09:24 -0,6 °C -0,6 °C -4,4 °C 77 % 1012,2 hPa 0,0 l/m² 0 min 0 min 54 W/m² 19,3 km/h (3 Bft) 98,21 %
23.11.2025 09:26 -0,6 °C -0,6 °C -4,4 °C 77 % 1012,2 hPa 0,0 l/m² 0 min 0 min 61 W/m² 19,3 km/h (3 Bft) 94,74 %
23.11.2025 09:28 -0,6 °C -0,6 °C -4,4 °C 77 % 1012,2 hPa 0,0 l/m² 0 min 0 min 62 W/m² 22,5 km/h (4 Bft) 95,65 %
23.11.2025 09:30 -0,5 °C -0,6 °C -4,4 °C 77 % 1012,1 hPa 0,0 l/m² 0 min 0 min 64 W/m² 19,3 km/h (3 Bft) 94,64 %
23.11.2025 09:32 -0,5 °C 0,0 °C -3,9 °C 76 % 1012,0 hPa 0,0 l/m² 0 min 0 min 71 W/m² 29,0 km/h (5 Bft) 94,74 %
23.11.2025 09:34 -0,4 °C 0,0 °C -3,9 °C 76 % 1012,1 hPa 0,0 l/m² 0 min 0 min 76 W/m² 22,5 km/h (4 Bft) 95,74 %
23.11.2025 09:36 -0,4 °C 0,0 °C -3,9 °C 76 % 1012,1 hPa 0,0 l/m² 0 min 0 min 77 W/m² 22,5 km/h (4 Bft) 98,28 %
23.11.2025 09:38 -0,4 °C 0,0 °C -3,9 °C 75 % 1012,1 hPa 0,0 l/m² 0 min 0 min 77 W/m² 16,1 km/h (3 Bft) 97,83 %
23.11.2025 09:40 -0,3 °C 0,0 °C -3,9 °C 75 % 1012,0 hPa 0,0 l/m² 0 min 0 min 77 W/m² 16,1 km/h (3 Bft) 97,87 %
23.11.2025 09:42 -0,3 °C 0,0 °C -3,9 °C 75 % 1012,0 hPa 0,0 l/m² 0 min 0 min 77 W/m² 19,3 km/h (3 Bft) 97,83 %
23.11.2025 09:44 -0,2 °C 0,0 °C -3,9 °C 75 % 1012,0 hPa 0,0 l/m² 0 min 0 min 78 W/m² 25,7 km/h (4 Bft) 100,00 %
23.11.2025 09:46 -0,2 °C 0,0 °C -3,9 °C 74 % 1011,9 hPa 0,0 l/m² 0 min 0 min 79 W/m² 22,5 km/h (4 Bft) 97,50 %
23.11.2025 09:48 -0,2 °C 0,0 °C -3,9 °C 74 % 1012,0 hPa 0,0 l/m² 0 min 0 min 79 W/m² 22,5 km/h (4 Bft) 98,15 %
23.11.2025 09:50 -0,1 °C 0,0 °C -3,9 °C 74 % 1011,9 hPa 0,0 l/m² 0 min 0 min 71 W/m² 19,3 km/h (3 Bft) 97,87 %
23.11.2025 09:52 -0,1 °C 0,0 °C -3,9 °C 74 % 1011,9 hPa 0,0 l/m² 0 min 0 min 68 W/m² 22,5 km/h (4 Bft) 97,44 %
23.11.2025 09:54 -0,1 °C 0,0 °C -3,9 °C 74 % 1011,9 hPa 0,0 l/m² 0 min 0 min 63 W/m² 22,5 km/h (4 Bft) 97,87 %
23.11.2025 09:56 -0,1 °C 0,0 °C -3,9 °C 74 % 1011,9 hPa 0,0 l/m² 0 min 0 min 63 W/m² 16,1 km/h (3 Bft) 97,87 %
23.11.2025 09:58 -0,1 °C 0,0 °C -3,9 °C 73 % 1011,9 hPa 0,0 l/m² 0 min 0 min 63 W/m² 22,5 km/h (4 Bft) 97,87 %
23.11.2025 10:00 0,0 °C 0,0 °C -3,9 °C 73 % 1011,9 hPa 0,0 l/m² 0 min 0 min 70 W/m² 25,7 km/h (4 Bft) 97,87 %
23.11.2025 10:02 0,0 °C 0,0 °C -3,9 °C 73 % 1011,9 hPa 0,0 l/m² 0 min 0 min 79 W/m² 29,0 km/h (5 Bft) 100,00 %
23.11.2025 10:04 0,0 °C 0,0 °C -3,9 °C 73 % 1011,9 hPa 0,0 l/m² 0 min 0 min 86 W/m² 22,5 km/h (4 Bft) 100,00 %
23.11.2025 10:08 0,0 °C 0,0 °C -3,9 °C 73 % 1011,8 hPa 0,0 l/m² 0 min 0 min 91 W/m² 25,7 km/h (4 Bft) 98,92 %
23.11.2025 10:10 0,1 °C 0,0 °C -3,9 °C 73 % 1011,8 hPa 0,0 l/m² 0 min 0 min 92 W/m² 16,1 km/h (3 Bft) 100,00 %
23.11.2025 10:12 0,1 °C 0,0 °C -3,3 °C 73 % 1011,8 hPa 0,0 l/m² 0 min 0 min 83 W/m² 25,7 km/h (4 Bft) 97,96 %
23.11.2025 10:14 0,1 °C 0,0 °C -3,9 °C 73 % 1011,8 hPa 0,0 l/m² 0 min 0 min 72 W/m² 19,3 km/h (3 Bft) 100,00 %
23.11.2025 10:16 0,1 °C 0,0 °C -3,9 °C 73 % 1011,8 hPa 0,0 l/m² 0 min 0 min 70 W/m² 19,3 km/h (3 Bft) 100,00 %
23.11.2025 10:18 0,1 °C 0,0 °C -3,9 °C 73 % 1011,8 hPa 0,0 l/m² 0 min 0 min 72 W/m² 19,3 km/h (3 Bft) 100,00 %
23.11.2025 10:20 0,2 °C 0,0 °C -3,9 °C 73 % 1011,7 hPa 0,0 l/m² 0 min 0 min 76 W/m² 29,0 km/h (5 Bft) 100,00 %
23.11.2025 10:22 0,2 °C 0,0 °C -3,9 °C 73 % 1011,7 hPa 0,0 l/m² 0 min 0 min 75 W/m² 22,5 km/h (4 Bft) 100,00 %
23.11.2025 10:24 0,2 °C 0,0 °C -3,9 °C 73 % 1011,7 hPa 0,0 l/m² 0 min 0 min 82 W/m² 22,5 km/h (4 Bft) 100,00 %
23.11.2025 10:26 0,2 °C 0,0 °C -3,9 °C 73 % 1011,6 hPa 0,0 l/m² 0 min 0 min 84 W/m² 29,0 km/h (5 Bft) 97,83 %
23.11.2025 10:28 0,2 °C 0,0 °C -3,9 °C 72 % 1011,5 hPa 0,0 l/m² 0 min 0 min 86 W/m² 22,5 km/h (4 Bft) 97,92 %
23.11.2025 10:30 0,2 °C 0,6 °C -3,3 °C 73 % 1011,5 hPa 0,0 l/m² 0 min 0 min 96 W/m² 19,3 km/h (3 Bft) 100,00 %
23.11.2025 10:32 0,2 °C 0,6 °C -3,3 °C 73 % 1011,5 hPa 0,0 l/m² 0 min 0 min 106 W/m² 25,7 km/h (4 Bft) 100,00 %
23.11.2025 10:34 0,3 °C 0,6 °C -3,3 °C 73 % 1011,6 hPa 0,0 l/m² 0 min 0 min 110 W/m² 12,9 km/h (3 Bft) 100,00 %
23.11.2025 10:36 0,3 °C 0,6 °C -3,3 °C 72 % 1011,6 hPa 0,0 l/m² 0 min 0 min 114 W/m² 19,3 km/h (3 Bft) 54,55 %
23.11.2025 10:38 0,3 °C 0,6 °C -3,3 °C 72 % 1011,5 hPa 0,0 l/m² 0 min 0 min 108 W/m² 16,1 km/h (3 Bft) 100,00 %
23.11.2025 10:40 0,3 °C 0,6 °C -3,3 °C 72 % 1011,4 hPa 0,0 l/m² 0 min 0 min 105 W/m² 16,1 km/h (3 Bft) 100,00 %
23.11.2025 10:42 0,4 °C 0,6 °C -3,3 °C 72 % 1011,4 hPa 0,0 l/m² 0 min 0 min 106 W/m² 38,6 km/h (5 Bft) 100,00 %
23.11.2025 10:44 0,4 °C 0,6 °C -3,3 °C 72 % 1011,3 hPa 0,0 l/m² 0 min 0 min 113 W/m² 19,3 km/h (3 Bft) 100,00 %
23.11.2025 10:46 0,4 °C 0,6 °C -3,3 °C 72 % 1011,3 hPa 0,0 l/m² 0 min 0 min 121 W/m² 19,3 km/h (3 Bft) 100,00 %
23.11.2025 10:48 0,5 °C 0,6 °C -3,3 °C 72 % 1011,3 hPa 0,0 l/m² 0 min 0 min 119 W/m² 19,3 km/h (3 Bft) 97,44 %
23.11.2025 10:50 0,5 °C 0,6 °C -3,3 °C 72 % 1011,2 hPa 0,0 l/m² 0 min 0 min 114 W/m² 22,5 km/h (4 Bft) 100,00 %
23.11.2025 10:52 0,6 °C 0,6 °C -3,3 °C 72 % 1011,1 hPa 0,0 l/m² 0 min 0 min 122 W/m² 22,5 km/h (4 Bft) 100,00 %
23.11.2025 10:54 0,6 °C 1,1 °C -3,3 °C 72 % 1011,0 hPa 0,0 l/m² 0 min 0 min 131 W/m² 22,5 km/h (4 Bft) 100,00 %
23.11.2025 10:56 0,6 °C 1,1 °C -2,8 °C 72 % 1010,9 hPa 0,0 l/m² 2 min 0 min 160 W/m² 22,5 km/h (4 Bft) 97,50 %
23.11.2025 10:58 0,6 °C 1,7 °C -2,8 °C 72 % 1010,9 hPa 0,0 l/m² 2 min 0 min 172 W/m² 22,5 km/h (4 Bft) 100,00 %
23.11.2025 11:00 0,6 °C 2,8 °C -2,8 °C 71 % 1010,8 hPa 0,0 l/m² 2 min 0 min 216 W/m² 25,7 km/h (4 Bft) 100,00 %
23.11.2025 11:02 0,7 °C 4,4 °C -2,8 °C 72 % 1010,6 hPa 0,0 l/m² 2 min 0 min 300 W/m² 19,3 km/h (3 Bft) 95,45 %
23.11.2025 11:04 0,8 °C 5,0 °C -3,3 °C 72 % 1010,6 hPa 0,0 l/m² 2 min 0 min 294 W/m² 41,8 km/h (6 Bft) 90,00 %
23.11.2025 11:06 0,9 °C 5,6 °C -3,3 °C 71 % 1010,4 hPa 0,0 l/m² 2 min 0 min 288 W/m² 29,0 km/h (5 Bft) 98,31 %
23.11.2025 11:08 1,0 °C 6,1 °C -3,3 °C 71 % 1010,4 hPa 0,0 l/m² 2 min 0 min 300 W/m² 19,3 km/h (3 Bft) 97,14 %
23.11.2025 11:10 1,1 °C 6,7 °C -3,3 °C 71 % 1010,3 hPa 0,0 l/m² 2 min 0 min 290 W/m² 19,3 km/h (3 Bft) 98,11 %
23.11.2025 11:12 1,2 °C 6,1 °C -3,3 °C 70 % 1010,2 hPa 0,0 l/m² 2 min 0 min 246 W/m² 19,3 km/h (3 Bft) 97,50 %
23.11.2025 11:14 1,2 °C 5,0 °C -3,3 °C 70 % 1010,2 hPa 0,0 l/m² 2 min 0 min 211 W/m² 19,3 km/h (3 Bft) 97,87 %
23.11.2025 11:16 1,3 °C 4,4 °C -3,3 °C 70 % 1010,2 hPa 0,0 l/m² 2 min 0 min 222 W/m² 22,5 km/h (4 Bft) 98,00 %
23.11.2025 11:18 1,3 °C 3,9 °C -2,8 °C 70 % 1010,1 hPa 0,0 l/m² 2 min 0 min 223 W/m² 19,3 km/h (3 Bft) 97,87 %
23.11.2025 11:20 1,3 °C 3,3 °C -2,8 °C 70 % 1010,1 hPa 0,0 l/m² 2 min 0 min 177 W/m² 25,7 km/h (4 Bft) 95,74 %
23.11.2025 11:22 1,3 °C 3,3 °C -2,8 °C 69 % 1010,1 hPa 0,0 l/m² 2 min 0 min 198 W/m² 25,7 km/h (4 Bft) 95,56 %
23.11.2025 11:24 1,3 °C 2,8 °C -2,8 °C 69 % 1010,1 hPa 0,0 l/m² 2 min 0 min 156 W/m² 25,7 km/h (4 Bft) 98,18 %
23.11.2025 11:26 1,3 °C 2,8 °C -2,8 °C 69 % 1010,0 hPa 0,0 l/m² 2 min 0 min 160 W/m² 32,2 km/h (5 Bft) 97,50 %
23.11.2025 11:28 1,3 °C 3,3 °C -2,8 °C 69 % 1010,0 hPa 0,0 l/m² 2 min 0 min 227 W/m² 29,0 km/h (5 Bft) 97,87 %
23.11.2025 11:30 1,3 °C 3,3 °C -2,8 °C 69 % 1009,9 hPa 0,0 l/m² 2 min 0 min 212 W/m² 22,5 km/h (4 Bft) 95,74 %
23.11.2025 11:32 1,3 °C 3,9 °C -2,8 °C 69 % 1009,9 hPa 0,0 l/m² 2 min 0 min 290 W/m² 25,7 km/h (4 Bft) 93,48 %
23.11.2025 11:34 1,4 °C 3,9 °C -2,8 °C 69 % 1009,7 hPa 0,0 l/m² 2 min 0 min 184 W/m² 29,0 km/h (5 Bft) 96,36 %
23.11.2025 11:36 1,4 °C 3,3 °C -2,8 °C 69 % 1009,7 hPa 0,0 l/m² 0 min 0 min 99 W/m² 22,5 km/h (4 Bft) 97,44 %
23.11.2025 11:38 1,4 °C 3,9 °C -2,8 °C 69 % 1009,5 hPa 0,0 l/m² 0 min 0 min 104 W/m² 25,7 km/h (4 Bft) 93,62 %
23.11.2025 11:40 1,5 °C 3,3 °C -2,8 °C 69 % 1009,5 hPa 0,0 l/m² 0 min 0 min 105 W/m² 29,0 km/h (5 Bft) 93,62 %
23.11.2025 11:42 1,6 °C 2,8 °C -2,8 °C 69 % 1009,4 hPa 0,0 l/m² 2 min 0 min 194 W/m² 32,2 km/h (5 Bft) 91,11 %
23.11.2025 11:44 1,6 °C 2,2 °C -2,8 °C 69 % 1009,4 hPa 0,0 l/m² 0 min 0 min 153 W/m² 29,0 km/h (5 Bft) 94,55 %
23.11.2025 11:46 1,6 °C 2,2 °C -2,8 °C 69 % 1009,3 hPa 0,0 l/m² 2 min 0 min 163 W/m² 29,0 km/h (5 Bft) 95,00 %
23.11.2025 11:48 1,7 °C 2,8 °C -2,8 °C 68 % 1009,2 hPa 0,0 l/m² 2 min 0 min 204 W/m² 25,7 km/h (4 Bft) 95,74 %
23.11.2025 11:50 1,7 °C 2,2 °C -2,8 °C 69 % 1009,2 hPa 0,0 l/m² 0 min 0 min 115 W/m² 25,7 km/h (4 Bft) 97,87 %
23.11.2025 11:52 1,7 °C 2,2 °C -2,8 °C 69 % 1009,2 hPa 0,0 l/m² 0 min 0 min 120 W/m² 16,1 km/h (3 Bft) 98,00 %
23.11.2025 11:54 1,7 °C 1,7 °C -2,8 °C 69 % 1009,1 hPa 0,0 l/m² 0 min 0 min 131 W/m² 19,3 km/h (3 Bft) 97,83 %
23.11.2025 11:56 1,7 °C 2,2 °C -2,2 °C 69 % 1009,0 hPa 0,0 l/m² 2 min 0 min 161 W/m² 19,3 km/h (3 Bft) 95,45 %
23.11.2025 11:58 1,7 °C 2,2 °C -2,8 °C 69 % 1008,9 hPa 0,0 l/m² 2 min 0 min 178 W/m² 22,5 km/h (4 Bft) 97,92 %
23.11.2025 12:00 1,7 °C 2,2 °C -2,8 °C 69 % 1008,9 hPa 0,0 l/m² 2 min 0 min 158 W/m² 29,0 km/h (5 Bft) 97,83 %
23.11.2025 12:02 1,6 °C 2,2 °C -2,8 °C 68 % 1008,9 hPa 0,0 l/m² 2 min 0 min 164 W/m² 32,2 km/h (5 Bft) 93,62 %
23.11.2025 12:04 1,6 °C 2,2 °C -2,8 °C 68 % 1008,9 hPa 0,0 l/m² 0 min 0 min 138 W/m² 19,3 km/h (3 Bft) 95,83 %
23.11.2025 12:08 1,6 °C 3,3 °C -2,2 °C 69 % 1008,6 hPa 0,0 l/m² 4 min 0 min 235 W/m² 25,7 km/h (4 Bft) 94,62 %
23.11.2025 12:10 1,7 °C 3,9 °C -2,2 °C 69 % 1008,5 hPa 0,0 l/m² 2 min 0 min 281 W/m² 22,5 km/h (4 Bft) 93,48 %
23.11.2025 12:12 1,7 °C 4,4 °C -2,2 °C 68 % 1008,4 hPa 0,0 l/m² 2 min 0 min 347 W/m² 25,7 km/h (4 Bft) 95,00 %
23.11.2025 12:16 1,9 °C 5,0 °C -2,2 °C 68 % 1008,4 hPa 0,0 l/m² 4 min 0 min 280 W/m² 32,2 km/h (5 Bft) 95,28 %
23.11.2025 12:18 1,9 °C 4,4 °C -2,2 °C 68 % 1008,4 hPa 0,0 l/m² 2 min 0 min 198 W/m² 25,7 km/h (4 Bft) 97,83 %
23.11.2025 12:20 2,0 °C 4,4 °C -2,2 °C 68 % 1008,3 hPa 0,0 l/m² 2 min 0 min 196 W/m² 22,5 km/h (4 Bft) 91,30 %
23.11.2025 12:22 2,1 °C 4,4 °C -2,2 °C 67 % 1008,3 hPa 0,0 l/m² 2 min 0 min 184 W/m² 29,0 km/h (5 Bft) 97,73 %
23.11.2025 12:24 2,1 °C 6,1 °C -2,2 °C 67 % 1008,2 hPa 0,0 l/m² 2 min 0 min 219 W/m² 35,4 km/h (5 Bft) 94,87 %
23.11.2025 12:26 2,2 °C 6,7 °C -2,2 °C 67 % 1008,1 hPa 0,0 l/m² 2 min 0 min 341 W/m² 32,2 km/h (5 Bft) 98,31 %
23.11.2025 12:28 2,2 °C 6,7 °C -2,2 °C 66 % 1008,0 hPa 0,0 l/m² 2 min 0 min 330 W/m² 32,2 km/h (5 Bft) 97,87 %
23.11.2025 12:30 2,3 °C 7,2 °C -2,2 °C 66 % 1008,0 hPa 0,0 l/m² 2 min 0 min 339 W/m² 29,0 km/h (5 Bft) 97,87 %
23.11.2025 12:32 2,4 °C 7,2 °C -2,2 °C 66 % 1007,9 hPa 0,0 l/m² 2 min 0 min 315 W/m² 22,5 km/h (4 Bft) 97,83 %
23.11.2025 12:34 2,4 °C 5,0 °C -2,2 °C 66 % 1007,9 hPa 0,0 l/m² 2 min 0 min 172 W/m² 22,5 km/h (4 Bft) 97,78 %
23.11.2025 12:36 2,4 °C 3,9 °C -2,2 °C 66 % 1007,9 hPa 0,0 l/m² 0 min 0 min 112 W/m² 19,3 km/h (3 Bft) 97,50 %
23.11.2025 12:38 2,5 °C 3,3 °C -2,2 °C 66 % 1007,8 hPa 0,0 l/m² 0 min 0 min 136 W/m² 29,0 km/h (5 Bft) 97,87 %
23.11.2025 12:40 2,4 °C 3,3 °C -2,2 °C 66 % 1007,6 hPa 0,0 l/m² 0 min 0 min 154 W/m² 32,2 km/h (5 Bft) 97,87 %
23.11.2025 12:42 2,4 °C 3,3 °C -2,2 °C 65 % 1007,5 hPa 0,0 l/m² 2 min 0 min 187 W/m² 25,7 km/h (4 Bft) 96,49 %
23.11.2025 12:44 2,4 °C 4,4 °C -2,2 °C 65 % 1007,5 hPa 0,0 l/m² 2 min 0 min 247 W/m² 35,4 km/h (5 Bft) 95,45 %
23.11.2025 12:46 2,4 °C 4,4 °C -2,2 °C 65 % 1007,3 hPa 0,0 l/m² 2 min 0 min 215 W/m² 25,7 km/h (4 Bft) 97,44 %
23.11.2025 12:48 2,4 °C 3,3 °C -2,2 °C 65 % 1007,2 hPa 0,0 l/m² 0 min 0 min 121 W/m² 29,0 km/h (5 Bft) 96,55 %
23.11.2025 12:50 2,3 °C 2,8 °C -2,2 °C 66 % 1007,2 hPa 0,0 l/m² 0 min 0 min 143 W/m² 19,3 km/h (3 Bft) 97,83 %
23.11.2025 12:52 2,3 °C 2,8 °C -2,2 °C 66 % 1007,1 hPa 0,0 l/m² 0 min 0 min 131 W/m² 22,5 km/h (4 Bft) 97,30 %
23.11.2025 12:54 2,3 °C 2,2 °C -2,2 °C 66 % 1007,0 hPa 0,0 l/m² 0 min 0 min 125 W/m² 22,5 km/h (4 Bft) 95,74 %
23.11.2025 12:56 2,3 °C 2,2 °C -2,2 °C 66 % 1007,0 hPa 0,0 l/m² 0 min 0 min 129 W/m² 22,5 km/h (4 Bft) 100,00 %
23.11.2025 12:58 2,3 °C 2,2 °C -1,7 °C 66 % 1006,9 hPa 0,0 l/m² 0 min 0 min 133 W/m² 25,7 km/h (4 Bft) 100,00 %
23.11.2025 13:00 2,3 °C 2,2 °C -1,7 °C 66 % 1006,9 hPa 0,0 l/m² 0 min 0 min 137 W/m² 25,7 km/h (4 Bft) 100,00 %
23.11.2025 13:02 2,3 °C 2,8 °C -1,7 °C 66 % 1006,8 hPa 0,0 l/m² 0 min 0 min 140 W/m² 19,3 km/h (3 Bft) 100,00 %
23.11.2025 13:04 2,3 °C 2,8 °C -1,7 °C 66 % 1006,7 hPa 0,0 l/m² 0 min 0 min 139 W/m² 25,7 km/h (4 Bft) 97,44 %
23.11.2025 13:06 2,3 °C 2,8 °C -1,7 °C 66 % 1006,6 hPa 0,0 l/m² 0 min 0 min 137 W/m² 25,7 km/h (4 Bft) 100,00 %
23.11.2025 13:08 2,3 °C 2,2 °C -1,7 °C 66 % 1006,5 hPa 0,0 l/m² 0 min 0 min 133 W/m² 32,2 km/h (5 Bft) 100,00 %
23.11.2025 13:10 2,4 °C 2,8 °C -1,7 °C 66 % 1006,5 hPa 0,0 l/m² 0 min 0 min 131 W/m² 25,7 km/h (4 Bft) 100,00 %
23.11.2025 13:12 2,4 °C 2,8 °C -1,7 °C 65 % 1006,4 hPa 0,0 l/m² 0 min 0 min 146 W/m² 22,5 km/h (4 Bft) 100,00 %
23.11.2025 13:14 2,4 °C 3,3 °C -1,7 °C 65 % 1006,3 hPa 0,0 l/m² 2 min 0 min 168 W/m² 22,5 km/h (4 Bft) 100,00 %
23.11.2025 13:16 2,4 °C 3,3 °C -1,7 °C 65 % 1006,3 hPa 0,0 l/m² 2 min 0 min 164 W/m² 22,5 km/h (4 Bft) 100,00 %
23.11.2025 13:18 2,5 °C 4,4 °C -1,7 °C 65 % 1006,2 hPa 0,0 l/m² 2 min 0 min 222 W/m² 29,0 km/h (5 Bft) 97,78 %
23.11.2025 13:20 2,6 °C 5,6 °C -1,7 °C 65 % 1006,2 hPa 0,0 l/m² 2 min 0 min 308 W/m² 35,4 km/h (5 Bft) 100,00 %
23.11.2025 13:22 2,7 °C 6,7 °C -1,1 °C 65 % 1006,1 hPa 0,0 l/m² 2 min 0 min 346 W/m² 22,5 km/h (4 Bft) 100,00 %
23.11.2025 13:24 2,8 °C 7,8 °C -1,1 °C 65 % 1006,1 hPa 0,0 l/m² 2 min 0 min 394 W/m² 19,3 km/h (3 Bft) 100,00 %
23.11.2025 13:26 3,0 °C 8,3 °C -1,1 °C 65 % 1006,0 hPa 0,0 l/m² 2 min 0 min 395 W/m² 19,3 km/h (3 Bft) 53,49 %
23.11.2025 13:28 3,1 °C 8,3 °C -1,1 °C 64 % 1005,8 hPa 0,0 l/m² 2 min 0 min 400 W/m² 38,6 km/h (5 Bft) 100,00 %
23.11.2025 13:30 3,3 °C 8,3 °C -1,1 °C 64 % 1005,8 hPa 0,0 l/m² 2 min 0 min 391 W/m² 25,7 km/h (4 Bft) 100,00 %
23.11.2025 13:32 3,4 °C 7,8 °C -1,1 °C 63 % 1005,8 hPa 0,0 l/m² 2 min 0 min 377 W/m² 22,5 km/h (4 Bft) 100,00 %
23.11.2025 13:34 3,6 °C 6,1 °C -1,1 °C 63 % 1005,7 hPa 0,0 l/m² 2 min 0 min 294 W/m² 22,5 km/h (4 Bft) 100,00 %
23.11.2025 13:36 3,6 °C 5,0 °C -1,1 °C 62 % 1005,8 hPa 0,0 l/m² 0 min 0 min 134 W/m² 29,0 km/h (5 Bft) 100,00 %
23.11.2025 13:38 3,6 °C 3,9 °C -1,1 °C 62 % 1005,8 hPa 0,0 l/m² 0 min 0 min 89 W/m² 32,2 km/h (5 Bft) 100,00 %
23.11.2025 13:40 3,6 °C 3,3 °C -1,1 °C 62 % 1005,8 hPa 0,0 l/m² 0 min 0 min 61 W/m² 22,5 km/h (4 Bft) 95,74 %
23.11.2025 13:42 3,6 °C 3,3 °C -1,1 °C 62 % 1005,9 hPa 0,0 l/m² 0 min 0 min 54 W/m² 29,0 km/h (5 Bft) 100,00 %
23.11.2025 13:44 3,4 °C 2,8 °C -1,7 °C 61 % 1005,8 hPa 0,0 l/m² 0 min 0 min 55 W/m² 22,5 km/h (4 Bft) 95,74 %
23.11.2025 13:46 3,4 °C 2,8 °C -1,7 °C 61 % 1005,7 hPa 0,0 l/m² 0 min 0 min 76 W/m² 29,0 km/h (5 Bft) 100,00 %
23.11.2025 13:48 3,3 °C 3,3 °C -1,7 °C 62 % 1005,6 hPa 0,0 l/m² 0 min 0 min 125 W/m² 22,5 km/h (4 Bft) 100,00 %
23.11.2025 13:50 3,3 °C 4,4 °C -1,7 °C 62 % 1005,5 hPa 0,0 l/m² 2 min 0 min 256 W/m² 25,7 km/h (4 Bft) 96,61 %
23.11.2025 13:52 3,2 °C 4,4 °C -1,7 °C 62 % 1005,5 hPa 0,0 l/m² 2 min 0 min 197 W/m² 25,7 km/h (4 Bft) 93,62 %
23.11.2025 13:54 3,2 °C 4,4 °C -1,1 °C 63 % 1005,4 hPa 0,0 l/m² 2 min 0 min 196 W/m² 22,5 km/h (4 Bft) 95,56 %
23.11.2025 13:56 3,3 °C 5,0 °C -1,1 °C 63 % 1005,4 hPa 0,0 l/m² 2 min 0 min 261 W/m² 25,7 km/h (4 Bft) 97,83 %
23.11.2025 13:58 3,3 °C 5,6 °C -1,1 °C 63 % 1005,2 hPa 0,0 l/m² 2 min 0 min 224 W/m² 16,1 km/h (3 Bft) 94,87 %
23.11.2025 14:00 3,4 °C 5,0 °C -1,1 °C 63 % 1005,2 hPa 0,0 l/m² 2 min 0 min 198 W/m² 19,3 km/h (3 Bft) 95,74 %
23.11.2025 14:02 3,4 °C 5,0 °C -1,1 °C 63 % 1005,1 hPa 0,0 l/m² 2 min 0 min 176 W/m² 22,5 km/h (4 Bft) 93,62 %
23.11.2025 14:04 3,4 °C 4,4 °C -1,1 °C 63 % 1005,1 hPa 0,0 l/m² 2 min 0 min 167 W/m² 25,7 km/h (4 Bft) 95,83 %
23.11.2025 14:08 3,4 °C 3,9 °C -1,1 °C 63 % 1005,0 hPa 0,0 l/m² 4 min 0 min 151 W/m² 29,0 km/h (5 Bft) 95,65 %
23.11.2025 14:10 3,4 °C 3,9 °C -1,1 °C 63 % 1005,0 hPa 0,0 l/m² 2 min 0 min 134 W/m² 19,3 km/h (3 Bft) 92,98 %
23.11.2025 14:12 3,5 °C 3,3 °C -1,1 °C 64 % 1004,9 hPa 0,0 l/m² 0 min 0 min 119 W/m² 25,7 km/h (4 Bft) 95,00 %
23.11.2025 14:14 3,5 °C 3,3 °C -1,1 °C 64 % 1004,9 hPa 0,0 l/m² 0 min 0 min 104 W/m² 16,1 km/h (3 Bft) 93,62 %
23.11.2025 14:16 3,4 °C 3,3 °C -1,1 °C 64 % 1004,8 hPa 0,0 l/m² 0 min 0 min 94 W/m² 25,7 km/h (4 Bft) 95,74 %
23.11.2025 14:18 3,4 °C 3,3 °C -1,1 °C 64 % 1004,7 hPa 0,0 l/m² 0 min 0 min 93 W/m² 22,5 km/h (4 Bft) 95,65 %
23.11.2025 14:20 3,4 °C 3,3 °C -1,1 °C 64 % 1004,6 hPa 0,0 l/m² 2 min 0 min 119 W/m² 22,5 km/h (4 Bft) 95,56 %
23.11.2025 14:22 3,4 °C 3,3 °C -1,1 °C 65 % 1004,5 hPa 0,0 l/m² 2 min 0 min 127 W/m² 16,1 km/h (3 Bft) 95,00 %
23.11.2025 14:24 3,4 °C 3,3 °C -1,1 °C 65 % 1004,4 hPa 0,0 l/m² 0 min 0 min 115 W/m² 16,1 km/h (3 Bft) 96,61 %
23.11.2025 14:26 3,4 °C 3,3 °C -1,1 °C 65 % 1004,3 hPa 0,0 l/m² 0 min 0 min 91 W/m² 19,3 km/h (3 Bft) 95,74 %
23.11.2025 14:28 3,4 °C 3,3 °C -1,1 °C 65 % 1004,3 hPa 0,0 l/m² 0 min 0 min 69 W/m² 22,5 km/h (4 Bft) 93,48 %
23.11.2025 14:30 3,4 °C 2,8 °C -1,1 °C 65 % 1004,3 hPa 0,0 l/m² 0 min 0 min 57 W/m² 25,7 km/h (4 Bft) 95,65 %
23.11.2025 14:32 3,4 °C 2,8 °C -1,1 °C 65 % 1004,3 hPa 0,0 l/m² 0 min 0 min 45 W/m² 25,7 km/h (4 Bft) 93,48 %
23.11.2025 14:34 3,3 °C 2,8 °C -1,1 °C 65 % 1004,2 hPa 0,0 l/m² 0 min 0 min 40 W/m² 25,7 km/h (4 Bft) 44,74 %
23.11.2025 14:36 3,3 °C 2,8 °C -1,1 °C 65 % 1004,2 hPa 0,0 l/m² 0 min 0 min 35 W/m² 22,5 km/h (4 Bft) 97,87 %
23.11.2025 14:38 3,2 °C 2,8 °C -1,1 °C 65 % 1004,1 hPa 0,0 l/m² 0 min 0 min 32 W/m² 22,5 km/h (4 Bft) 96,61 %
23.11.2025 14:40 3,2 °C 2,8 °C -1,1 °C 65 % 1004,0 hPa 0,0 l/m² 0 min 0 min 44 W/m² 22,5 km/h (4 Bft) 100,00 %
23.11.2025 14:42 3,2 °C 2,8 °C -1,1 °C 66 % 1003,9 hPa 0,0 l/m² 0 min 0 min 53 W/m² 16,1 km/h (3 Bft) 100,00 %
23.11.2025 14:44 3,2 °C 2,8 °C -1,1 °C 65 % 1004,0 hPa 0,0 l/m² 0 min 0 min 47 W/m² 19,3 km/h (3 Bft) 100,00 %
23.11.2025 14:46 3,1 °C 2,8 °C -1,1 °C 66 % 1004,0 hPa 0,0 l/m² 0 min 0 min 43 W/m² 22,5 km/h (4 Bft) 97,87 %
23.11.2025 14:48 3,1 °C 2,8 °C -1,1 °C 66 % 1003,9 hPa 0,0 l/m² 0 min 0 min 42 W/m² 25,7 km/h (4 Bft) 100,00 %
23.11.2025 14:50 3,1 °C 2,8 °C -1,1 °C 66 % 1003,9 hPa 0,0 l/m² 0 min 0 min 40 W/m² 19,3 km/h (3 Bft) 100,00 %
23.11.2025 14:52 3,1 °C 2,8 °C -1,1 °C 66 % 1003,8 hPa 0,0 l/m² 0 min 0 min 35 W/m² 19,3 km/h (3 Bft) 100,00 %
23.11.2025 14:54 3,1 °C 2,8 °C -1,1 °C 66 % 1003,8 hPa 0,0 l/m² 0 min 0 min 31 W/m² 19,3 km/h (3 Bft) 97,83 %
23.11.2025 14:56 3,1 °C 2,8 °C -1,1 °C 66 % 1003,8 hPa 0,0 l/m² 0 min 0 min 32 W/m² 25,7 km/h (4 Bft) 100,00 %
23.11.2025 14:58 3,1 °C 2,8 °C -1,1 °C 67 % 1003,7 hPa 0,0 l/m² 0 min 0 min 30 W/m² 29,0 km/h (5 Bft) 100,00 %
23.11.2025 15:00 3,1 °C 2,8 °C -1,1 °C 67 % 1003,7 hPa 0,0 l/m² 0 min 0 min 28 W/m² 19,3 km/h (3 Bft) 97,83 %
23.11.2025 15:02 3,1 °C 2,8 °C -1,1 °C 67 % 1003,7 hPa 0,0 l/m² 0 min 0 min 28 W/m² 25,7 km/h (4 Bft) 98,28 %
23.11.2025 15:04 3,1 °C 2,8 °C -1,1 °C 67 % 1003,6 hPa 0,0 l/m² 0 min 0 min 25 W/m² 19,3 km/h (3 Bft) 97,62 %
23.11.2025 15:08 3,1 °C 2,8 °C -1,1 °C 67 % 1003,6 hPa 0,0 l/m² 0 min 0 min 25 W/m² 29,0 km/h (5 Bft) 97,87 %
23.11.2025 15:10 3,1 °C 2,8 °C -1,7 °C 68 % 1003,4 hPa 0,0 l/m² 0 min 0 min 29 W/m² 19,3 km/h (3 Bft) 97,78 %
23.11.2025 15:12 3,1 °C 2,8 °C -1,7 °C 68 % 1003,3 hPa 0,0 l/m² 0 min 0 min 30 W/m² 12,9 km/h (3 Bft) 97,96 %
23.11.2025 15:14 3,1 °C 2,8 °C -1,7 °C 69 % 1003,3 hPa 0,0 l/m² 0 min 0 min 31 W/m² 22,5 km/h (4 Bft) 95,56 %
23.11.2025 15:16 3,1 °C 2,8 °C -1,7 °C 69 % 1003,3 hPa 0,0 l/m² 0 min 0 min 35 W/m² 19,3 km/h (3 Bft) 97,83 %
23.11.2025 15:18 3,0 °C 2,8 °C -1,7 °C 69 % 1003,2 hPa 0,0 l/m² 0 min 0 min 33 W/m² 22,5 km/h (4 Bft) 97,50 %
23.11.2025 15:20 3,1 °C 2,8 °C -1,7 °C 70 % 1003,2 hPa 0,0 l/m² 0 min 0 min 27 W/m² 19,3 km/h (3 Bft) 97,87 %
23.11.2025 15:22 3,1 °C 2,8 °C -1,7 °C 70 % 1003,2 hPa 0,0 l/m² 0 min 0 min 25 W/m² 19,3 km/h (3 Bft) 98,31 %
23.11.2025 15:24 3,1 °C 2,8 °C -1,7 °C 70 % 1003,1 hPa 0,0 l/m² 0 min 0 min 21 W/m² 25,7 km/h (4 Bft) 97,83 %
23.11.2025 15:26 3,1 °C 2,8 °C -1,1 °C 70 % 1003,0 hPa 0,0 l/m² 0 min 0 min 20 W/m² 35,4 km/h (5 Bft) 97,78 %
23.11.2025 15:28 3,1 °C 2,8 °C -1,1 °C 70 % 1003,1 hPa 0,0 l/m² 0 min 0 min 18 W/m² 32,2 km/h (5 Bft) 97,78 %
23.11.2025 15:30 3,1 °C 2,8 °C -1,1 °C 70 % 1003,0 hPa 0,0 l/m² 0 min 0 min 19 W/m² 25,7 km/h (4 Bft) 97,44 %
23.11.2025 15:32 3,1 °C 2,8 °C -1,1 °C 70 % 1003,0 hPa 0,0 l/m² 0 min 0 min 19 W/m² 19,3 km/h (3 Bft) 97,87 %
23.11.2025 15:34 3,1 °C 2,8 °C -1,7 °C 70 % 1003,0 hPa 0,0 l/m² 0 min 0 min 18 W/m² 29,0 km/h (5 Bft) 97,87 %
23.11.2025 15:36 3,1 °C 2,8 °C -1,7 °C 71 % 1003,0 hPa 0,0 l/m² 0 min 0 min 18 W/m² 32,2 km/h (5 Bft) 94,92 %
23.11.2025 15:38 3,1 °C 2,2 °C -1,7 °C 71 % 1003,0 hPa 0,0 l/m² 0 min 0 min 15 W/m² 22,5 km/h (4 Bft) 97,73 %
23.11.2025 15:40 3,1 °C 2,2 °C -1,7 °C 72 % 1002,9 hPa 0,0 l/m² 0 min 0 min 14 W/m² 25,7 km/h (4 Bft) 97,56 %
23.11.2025 15:42 3,1 °C 2,2 °C -1,7 °C 73 % 1003,0 hPa 0,0 l/m² 0 min 0 min 14 W/m² 29,0 km/h (5 Bft) 97,83 %
23.11.2025 15:44 3,1 °C 2,2 °C -2,2 °C 74 % 1002,8 hPa 0,0 l/m² 0 min 0 min 12 W/m² 35,4 km/h (5 Bft) 97,87 %
23.11.2025 15:46 2,9 °C 1,7 °C -2,2 °C 75 % 1002,8 hPa 0,0 l/m² 0 min 0 min 9 W/m² 22,5 km/h (4 Bft) 97,87 %
23.11.2025 15:48 2,9 °C 1,7 °C -2,2 °C 76 % 1002,9 hPa 0,0 l/m² 0 min 0 min 7 W/m² 29,0 km/h (5 Bft) 100,00 %
23.11.2025 15:50 2,8 °C 1,7 °C -2,8 °C 77 % 1002,9 hPa 0,0 l/m² 0 min 0 min 6 W/m² 25,7 km/h (4 Bft) 100,00 %
23.11.2025 15:52 2,7 °C 1,1 °C -2,8 °C 78 % 1002,8 hPa 0,0 l/m² 0 min 0 min 5 W/m² 29,0 km/h (5 Bft) 97,83 %
23.11.2025 15:54 2,6 °C 1,1 °C -3,9 °C 79 % 1002,7 hPa 0,0 l/m² 0 min 0 min 0 W/m² 25,7 km/h (4 Bft) 100,00 %
23.11.2025 15:56 2,5 °C 1,1 °C -3,9 °C 80 % 1002,6 hPa 0,0 l/m² 0 min 0 min 5 W/m² 22,5 km/h (4 Bft) 97,87 %
23.11.2025 15:58 2,4 °C 1,1 °C -3,9 °C 81 % 1002,5 hPa 0,0 l/m² 0 min 0 min 5 W/m² 19,3 km/h (3 Bft) 100,00 %
23.11.2025 16:00 2,3 °C 0,6 °C -3,9 °C 81 % 1002,5 hPa 0,0 l/m² 0 min 0 min 8 W/m² 19,3 km/h (3 Bft) 97,87 %
23.11.2025 16:02 2,2 °C 0,6 °C -3,9 °C 82 % 1002,4 hPa 0,0 l/m² 0 min 0 min 9 W/m² 22,5 km/h (4 Bft) 96,61 %
23.11.2025 16:04 2,1 °C 0,6 °C -3,9 °C 83 % 1002,3 hPa 0,0 l/m² 0 min 0 min 11 W/m² 22,5 km/h (4 Bft) 97,83 %
23.11.2025 16:08 1,9 °C 0,6 °C -3,9 °C 84 % 1002,2 hPa 0,0 l/m² 0 min 0 min 8 W/m² 22,5 km/h (4 Bft) 96,74 %
23.11.2025 16:10 1,8 °C 0,6 °C -3,9 °C 85 % 1002,2 hPa 0,0 l/m² 0 min 0 min 5 W/m² 25,7 km/h (4 Bft) 100,00 %
23.11.2025 16:12 1,8 °C 0,6 °C -3,3 °C 85 % 1002,1 hPa 0,0 l/m² 0 min 0 min 5 W/m² 19,3 km/h (3 Bft) 95,74 %
23.11.2025 16:14 1,7 °C 0,6 °C -3,3 °C 86 % 1002,1 hPa 0,0 l/m² 0 min 0 min 2 W/m² 19,3 km/h (3 Bft) 97,87 %
23.11.2025 16:16 1,7 °C 0,6 °C -3,3 °C 87 % 1002,1 hPa 0,0 l/m² 0 min 0 min 0 W/m² 32,2 km/h (5 Bft) 97,87 %
23.11.2025 16:18 1,6 °C 0,6 °C -3,3 °C 87 % 1002,1 hPa 0,0 l/m² 0 min 0 min 0 W/m² 35,4 km/h (5 Bft) 98,25 %
23.11.2025 16:20 1,6 °C 0,6 °C -3,3 °C 88 % 1002,0 hPa 0,0 l/m² 0 min 0 min 0 W/m² 19,3 km/h (3 Bft) 97,78 %
23.11.2025 16:22 1,6 °C 0,6 °C -3,3 °C 88 % 1002,1 hPa 0,0 l/m² 0 min 0 min 0 W/m² 16,1 km/h (3 Bft) 95,56 %
23.11.2025 16:24 1,6 °C 0,6 °C -3,3 °C 88 % 1002,1 hPa 0,0 l/m² 0 min 0 min 0 W/m² 35,4 km/h (5 Bft) 97,50 %
23.11.2025 16:26 1,5 °C 0,6 °C -3,3 °C 89 % 1002,1 hPa 0,0 l/m² 0 min 0 min 0 W/m² 25,7 km/h (4 Bft) 97,87 %
23.11.2025 16:28 1,5 °C 0,6 °C -3,3 °C 89 % 1002,1 hPa 0,0 l/m² 0 min 0 min 0 W/m² 25,7 km/h (4 Bft) 97,83 %
23.11.2025 16:30 1,5 °C 0,6 °C -3,3 °C 89 % 1002,2 hPa 0,0 l/m² 0 min 0 min 0 W/m² 25,7 km/h (4 Bft) 98,28 %
23.11.2025 16:32 1,4 °C 0,6 °C -3,3 °C 89 % 1002,1 hPa 0,0 l/m² 0 min 0 min 0 W/m² 32,2 km/h (5 Bft) 93,48 %
23.11.2025 16:34 1,4 °C 0,6 °C -3,3 °C 89 % 1002,1 hPa 0,0 l/m² 0 min 0 min 0 W/m² 38,6 km/h (5 Bft) 100,00 %
23.11.2025 16:36 1,4 °C 0,6 °C -3,3 °C 89 % 1002,1 hPa 0,0 l/m² 0 min 0 min 0 W/m² 25,7 km/h (4 Bft) 100,00 %
23.11.2025 16:38 1,4 °C 0,6 °C -3,3 °C 89 % 1002,0 hPa 0,0 l/m² 0 min 0 min 0 W/m² 22,5 km/h (4 Bft) 100,00 %
23.11.2025 16:40 1,4 °C 0,6 °C -3,3 °C 89 % 1001,9 hPa 0,0 l/m² 0 min 0 min 0 W/m² 22,5 km/h (4 Bft) 95,65 %
23.11.2025 16:42 1,3 °C 0,6 °C -3,3 °C 90 % 1001,9 hPa 0,0 l/m² 0 min 0 min 0 W/m² 25,7 km/h (4 Bft) 100,00 %
23.11.2025 16:44 1,3 °C 0,6 °C -3,3 °C 90 % 1001,9 hPa 0,0 l/m² 0 min 0 min 0 W/m² 22,5 km/h (4 Bft) 100,00 %
23.11.2025 16:46 1,3 °C 0,6 °C -3,3 °C 90 % 1001,8 hPa 0,0 l/m² 0 min 0 min 0 W/m² 19,3 km/h (3 Bft) 100,00 %
23.11.2025 16:48 1,3 °C 0,6 °C -3,3 °C 90 % 1001,7 hPa 0,0 l/m² 0 min 0 min 0 W/m² 16,1 km/h (3 Bft) 95,74 %
23.11.2025 16:50 1,3 °C 0,6 °C -3,3 °C 90 % 1001,7 hPa 0,0 l/m² 0 min 0 min 0 W/m² 22,5 km/h (4 Bft) 95,74 %
23.11.2025 16:52 1,3 °C 0,6 °C -3,3 °C 90 % 1001,6 hPa 0,0 l/m² 0 min 0 min 0 W/m² 22,5 km/h (4 Bft) 98,11 %
23.11.2025 16:54 1,3 °C 0,6 °C -3,3 °C 90 % 1001,6 hPa 0,0 l/m² 0 min 0 min 0 W/m² 22,5 km/h (4 Bft) 97,87 %
23.11.2025 16:56 1,3 °C 0,6 °C -3,3 °C 90 % 1001,6 hPa 0,2 l/m² 0 min 0 min 0 W/m² 22,5 km/h (4 Bft) 97,87 %
23.11.2025 16:58 1,2 °C 0,6 °C -3,3 °C 90 % 1001,6 hPa 0,0 l/m² 0 min 0 min 0 W/m² 16,1 km/h (3 Bft) 97,87 %
23.11.2025 17:00 1,2 °C 0,6 °C -3,3 °C 90 % 1001,6 hPa 0,0 l/m² 0 min 0 min 0 W/m² 19,3 km/h (3 Bft) 97,92 %
23.11.2025 17:02 1,2 °C 0,6 °C -3,3 °C 90 % 1001,6 hPa 0,0 l/m² 0 min 0 min 0 W/m² 19,3 km/h (3 Bft) 97,83 %
23.11.2025 17:04 1,2 °C 0,6 °C -3,9 °C 90 % 1001,6 hPa 0,0 l/m² 0 min 0 min 0 W/m² 29,0 km/h (5 Bft) 97,62 %
23.11.2025 17:08 1,2 °C 0,6 °C -3,9 °C 90 % 1001,5 hPa 0,0 l/m² 0 min 0 min 0 W/m² 29,0 km/h (5 Bft) 92,41 %
23.11.2025 17:10 1,1 °C 0,6 °C -3,9 °C 90 % 1001,5 hPa 0,0 l/m² 0 min 0 min 0 W/m² 16,1 km/h (3 Bft) 94,87 %
23.11.2025 17:12 1,1 °C 0,0 °C -3,9 °C 90 % 1001,5 hPa 0,0 l/m² 0 min 0 min 0 W/m² 16,1 km/h (3 Bft) 92,59 %
23.11.2025 17:14 1,1 °C 0,0 °C -3,9 °C 90 % 1001,5 hPa 0,0 l/m² 0 min 0 min 0 W/m² 22,5 km/h (4 Bft) 94,87 %
23.11.2025 17:16 1,1 °C 0,0 °C -3,9 °C 90 % 1001,5 hPa 0,0 l/m² 0 min 0 min 0 W/m² 19,3 km/h (3 Bft) 96,36 %
23.11.2025 17:18 1,1 °C 0,0 °C -3,9 °C 91 % 1001,4 hPa 0,0 l/m² 0 min 0 min 0 W/m² 25,7 km/h (4 Bft) 95,74 %
23.11.2025 17:20 1,0 °C 0,0 °C -3,9 °C 91 % 1001,4 hPa 0,0 l/m² 0 min 0 min 0 W/m² 19,3 km/h (3 Bft) 93,75 %
23.11.2025 17:22 1,0 °C 0,0 °C -3,9 °C 91 % 1001,4 hPa 0,0 l/m² 0 min 0 min 0 W/m² 22,5 km/h (4 Bft) 95,74 %
23.11.2025 17:24 1,0 °C 0,0 °C -3,9 °C 91 % 1001,4 hPa 0,0 l/m² 0 min 0 min 0 W/m² 29,0 km/h (5 Bft) 94,74 %
23.11.2025 17:26 1,0 °C 0,0 °C -3,9 °C 91 % 1001,4 hPa 0,0 l/m² 0 min 0 min 0 W/m² 25,7 km/h (4 Bft) 93,33 %
23.11.2025 17:28 0,9 °C 0,0 °C -3,9 °C 91 % 1001,4 hPa 0,0 l/m² 0 min 0 min 0 W/m² 29,0 km/h (5 Bft) 95,83 %
23.11.2025 17:30 0,9 °C 0,6 °C -3,9 °C 91 % 1001,4 hPa 0,0 l/m² 0 min 0 min 0 W/m² 19,3 km/h (3 Bft) 95,74 %
23.11.2025 17:32 0,9 °C 0,0 °C -3,9 °C 91 % 1001,4 hPa 0,0 l/m² 0 min 0 min 0 W/m² 22,5 km/h (4 Bft) 95,56 %
23.11.2025 17:34 0,9 °C 0,0 °C -3,9 °C 91 % 1001,4 hPa 0,0 l/m² 0 min 0 min 0 W/m² 22,5 km/h (4 Bft) 95,92 %
23.11.2025 17:36 0,9 °C 0,0 °C -3,9 °C 91 % 1001,3 hPa 0,0 l/m² 0 min 0 min 0 W/m² 25,7 km/h (4 Bft) 95,74 %
23.11.2025 17:38 0,9 °C 0,0 °C -3,9 °C 91 % 1001,3 hPa 0,0 l/m² 0 min 0 min 0 W/m² 25,7 km/h (4 Bft) 93,18 %
23.11.2025 17:40 0,9 °C 0,0 °C -3,9 °C 91 % 1001,3 hPa 0,0 l/m² 0 min 0 min 0 W/m² 25,7 km/h (4 Bft) 95,92 %
23.11.2025 17:42 0,9 °C 0,0 °C -3,9 °C 91 % 1001,3 hPa 0,0 l/m² 0 min 0 min 0 W/m² 25,7 km/h (4 Bft) 95,74 %
23.11.2025 17:44 0,9 °C 0,0 °C -3,9 °C 92 % 1001,3 hPa 0,0 l/m² 0 min 0 min 0 W/m² 22,5 km/h (4 Bft) 97,83 %
23.11.2025 17:46 0,9 °C 0,0 °C -3,9 °C 92 % 1001,2 hPa 0,0 l/m² 0 min 0 min 0 W/m² 19,3 km/h (3 Bft) 97,92 %
23.11.2025 17:48 0,9 °C 0,0 °C -3,9 °C 92 % 1001,2 hPa 0,0 l/m² 0 min 0 min 0 W/m² 19,3 km/h (3 Bft) 93,62 %
23.11.2025 17:50 0,9 °C 0,0 °C -3,9 °C 92 % 1001,3 hPa 0,0 l/m² 0 min 0 min 0 W/m² 19,3 km/h (3 Bft) 96,30 %
23.11.2025 17:52 0,9 °C 0,0 °C -4,4 °C 92 % 1001,3 hPa 0,0 l/m² 0 min 2 min 0 W/m² 19,3 km/h (3 Bft) 94,87 %
23.11.2025 17:54 0,9 °C 0,0 °C -4,4 °C 92 % 1001,3 hPa 0,0 l/m² 0 min 2 min 0 W/m² 19,3 km/h (3 Bft) 96,43 %
23.11.2025 17:56 0,9 °C 0,0 °C -4,4 °C 92 % 1001,3 hPa 0,0 l/m² 0 min 0 min 0 W/m² 12,9 km/h (3 Bft) 94,74 %
23.11.2025 17:58 0,9 °C 0,0 °C -3,9 °C 92 % 1001,3 hPa 0,0 l/m² 0 min 0 min 0 W/m² 22,5 km/h (4 Bft) 95,74 %
23.11.2025 18:00 0,9 °C 0,0 °C -3,9 °C 92 % 1001,2 hPa 0,0 l/m² 0 min 0 min 0 W/m² 22,5 km/h (4 Bft) 97,96 %
23.11.2025 18:02 0,8 °C 0,0 °C -3,9 °C 92 % 1001,2 hPa 0,0 l/m² 0 min 0 min 0 W/m² 19,3 km/h (3 Bft) 95,74 %
23.11.2025 18:04 0,9 °C 0,0 °C -3,9 °C 92 % 1001,1 hPa 0,0 l/m² 0 min 0 min 0 W/m² 12,9 km/h (3 Bft) 97,73 %
23.11.2025 18:07 0,9 °C 0,0 °C -3,9 °C 93 % 1001,1 hPa 0,0 l/m² 0 min 0 min 0 W/m² 22,5 km/h (4 Bft) 97,30 %
23.11.2025 18:08 0,9 °C 0,0 °C -3,9 °C 93 % 1001,1 hPa 0,0 l/m² 0 min 0 min 0 W/m² 22,5 km/h (4 Bft) 100,00 %
23.11.2025 18:12 0,9 °C 0,0 °C -3,9 °C 93 % 1001,1 hPa 0,0 l/m² 0 min 0 min 0 W/m² 19,3 km/h (3 Bft) 98,28 %
23.11.2025 18:14 0,9 °C 0,0 °C -3,9 °C 93 % 1001,1 hPa 0,0 l/m² 0 min 0 min 0 W/m² 16,1 km/h (3 Bft) 97,87 %
23.11.2025 18:16 0,9 °C 0,6 °C -3,9 °C 93 % 1001,0 hPa 0,0 l/m² 0 min 0 min 0 W/m² 19,3 km/h (3 Bft) 97,87 %
23.11.2025 18:18 0,9 °C 0,6 °C -3,3 °C 93 % 1001,0 hPa 0,2 l/m² 0 min 0 min 0 W/m² 25,7 km/h (4 Bft) 100,00 %
23.11.2025 18:20 0,9 °C 0,6 °C -3,3 °C 93 % 1001,1 hPa 0,0 l/m² 0 min 0 min 0 W/m² 19,3 km/h (3 Bft) 100,00 %
23.11.2025 18:22 1,0 °C 0,6 °C -3,3 °C 93 % 1001,0 hPa 0,0 l/m² 0 min 0 min 0 W/m² 16,1 km/h (3 Bft) 100,00 %
23.11.2025 18:24 1,0 °C 0,6 °C -3,3 °C 93 % 1001,1 hPa 0,0 l/m² 0 min 0 min 0 W/m² 16,1 km/h (3 Bft) 95,74 %
23.11.2025 18:26 1,0 °C 0,6 °C -3,3 °C 93 % 1001,1 hPa 0,0 l/m² 0 min 0 min 0 W/m² 25,7 km/h (4 Bft) 100,00 %
23.11.2025 18:28 1,0 °C 0,6 °C -3,3 °C 94 % 1001,1 hPa 0,0 l/m² 0 min 0 min 0 W/m² 16,1 km/h (3 Bft) 97,87 %
23.11.2025 18:30 1,1 °C 0,6 °C -3,3 °C 94 % 1001,1 hPa 0,0 l/m² 0 min 0 min 0 W/m² 16,1 km/h (3 Bft) 100,00 %
23.11.2025 18:32 1,1 °C 0,6 °C -3,3 °C 94 % 1001,2 hPa 0,0 l/m² 0 min 0 min 0 W/m² 16,1 km/h (3 Bft) 97,87 %
23.11.2025 18:34 1,1 °C 0,6 °C -3,3 °C 94 % 1001,2 hPa 0,2 l/m² 0 min 0 min 0 W/m² 12,9 km/h (3 Bft) 100,00 %
23.11.2025 18:36 1,1 °C 0,6 °C -3,3 °C 94 % 1001,2 hPa 0,0 l/m² 0 min 0 min 0 W/m² 16,1 km/h (3 Bft) 100,00 %
23.11.2025 18:38 1,1 °C 0,6 °C -3,3 °C 94 % 1001,2 hPa 0,0 l/m² 0 min 0 min 0 W/m² 16,1 km/h (3 Bft) 95,56 %
23.11.2025 18:40 1,1 °C 0,6 °C -3,3 °C 94 % 1001,2 hPa 0,0 l/m² 0 min 0 min 0 W/m² 25,7 km/h (4 Bft) 100,00 %
23.11.2025 18:42 1,1 °C 0,6 °C -3,3 °C 94 % 1001,2 hPa 0,0 l/m² 0 min 0 min 0 W/m² 16,1 km/h (3 Bft) 100,00 %
23.11.2025 18:44 1,1 °C 0,6 °C -3,3 °C 94 % 1001,1 hPa 0,0 l/m² 0 min 0 min 0 W/m² 19,3 km/h (3 Bft) 100,00 %
23.11.2025 18:46 1,1 °C 0,6 °C -3,3 °C 94 % 1001,1 hPa 0,0 l/m² 0 min 0 min 0 W/m² 19,3 km/h (3 Bft) 100,00 %
23.11.2025 18:48 1,1 °C 0,6 °C -3,3 °C 94 % 1001,0 hPa 0,0 l/m² 0 min 0 min 0 W/m² 19,3 km/h (3 Bft) 100,00 %
23.11.2025 18:50 1,1 °C 0,6 °C -3,3 °C 94 % 1001,0 hPa 0,0 l/m² 0 min 0 min 0 W/m² 19,3 km/h (3 Bft) 100,00 %
23.11.2025 18:52 1,2 °C 0,6 °C -3,3 °C 94 % 1001,0 hPa 0,0 l/m² 0 min 0 min 0 W/m² 19,3 km/h (3 Bft) 100,00 %
23.11.2025 18:54 1,2 °C 0,6 °C -3,3 °C 94 % 1000,9 hPa 0,0 l/m² 0 min 0 min 0 W/m² 12,9 km/h (3 Bft) 100,00 %
23.11.2025 18:56 1,2 °C 0,6 °C -3,3 °C 94 % 1000,9 hPa 0,0 l/m² 0 min 0 min 0 W/m² 19,3 km/h (3 Bft) 100,00 %
23.11.2025 18:58 1,2 °C 0,6 °C -3,3 °C 94 % 1000,9 hPa 0,0 l/m² 0 min 0 min 0 W/m² 16,1 km/h (3 Bft) 100,00 %
23.11.2025 19:00 1,2 °C 0,6 °C -3,3 °C 94 % 1000,9 hPa 0,0 l/m² 0 min 0 min 0 W/m² 22,5 km/h (4 Bft) 100,00 %
23.11.2025 19:02 1,2 °C 0,6 °C -3,3 °C 94 % 1000,9 hPa 0,0 l/m² 0 min 0 min 0 W/m² 19,3 km/h (3 Bft) 100,00 %
23.11.2025 19:04 1,2 °C 0,6 °C -3,3 °C 94 % 1000,9 hPa 0,0 l/m² 0 min 0 min 0 W/m² 19,3 km/h (3 Bft) 100,00 %
23.11.2025 19:06 1,2 °C 0,6 °C -3,3 °C 95 % 1000,9 hPa 0,0 l/m² 0 min 0 min 0 W/m² 12,9 km/h (3 Bft) 100,00 %
23.11.2025 19:08 1,2 °C 0,6 °C -3,3 °C 95 % 1000,9 hPa 0,0 l/m² 0 min 0 min 0 W/m² 16,1 km/h (3 Bft) 100,00 %
23.11.2025 19:10 1,2 °C 0,6 °C -3,3 °C 95 % 1000,9 hPa 0,0 l/m² 0 min 0 min 0 W/m² 9,7 km/h (2 Bft) 100,00 %
23.11.2025 19:12 1,2 °C 0,6 °C -3,3 °C 95 % 1000,9 hPa 0,0 l/m² 0 min 0 min 0 W/m² 12,9 km/h (3 Bft) 100,00 %
23.11.2025 19:14 1,2 °C 0,6 °C -3,3 °C 95 % 1000,9 hPa 0,0 l/m² 0 min 0 min 0 W/m² 12,9 km/h (3 Bft) 100,00 %
23.11.2025 19:16 1,2 °C 0,6 °C -3,3 °C 95 % 1000,8 hPa 0,0 l/m² 0 min 0 min 0 W/m² 16,1 km/h (3 Bft) 100,00 %
23.11.2025 19:18 1,3 °C 0,6 °C -3,3 °C 95 % 1000,8 hPa 0,0 l/m² 0 min 0 min 0 W/m² 16,1 km/h (3 Bft) 97,87 %
23.11.2025 19:20 1,3 °C 0,6 °C -3,3 °C 95 % 1000,8 hPa 0,0 l/m² 0 min 0 min 0 W/m² 19,3 km/h (3 Bft) 97,87 %
23.11.2025 19:22 1,3 °C 0,6 °C -3,3 °C 95 % 1000,8 hPa 0,0 l/m² 0 min 0 min 0 W/m² 16,1 km/h (3 Bft) 97,87 %
23.11.2025 19:24 1,3 °C 1,1 °C -2,8 °C 95 % 1000,7 hPa 0,0 l/m² 0 min 0 min 0 W/m² 22,5 km/h (4 Bft) 100,00 %
23.11.2025 19:26 1,3 °C 1,1 °C -2,8 °C 95 % 1000,6 hPa 0,0 l/m² 0 min 0 min 0 W/m² 19,3 km/h (3 Bft) 100,00 %
23.11.2025 19:28 1,3 °C 1,1 °C -2,8 °C 95 % 1000,7 hPa 0,2 l/m² 0 min 0 min 0 W/m² 16,1 km/h (3 Bft) 97,87 %
23.11.2025 19:30 1,3 °C 1,1 °C -2,8 °C 95 % 1000,7 hPa 0,0 l/m² 0 min 0 min 0 W/m² 16,1 km/h (3 Bft) 95,74 %
23.11.2025 19:32 1,3 °C 1,1 °C -2,8 °C 95 % 1000,7 hPa 0,0 l/m² 0 min 0 min 0 W/m² 19,3 km/h (3 Bft) 97,87 %
23.11.2025 19:34 1,3 °C 1,1 °C -2,8 °C 95 % 1000,7 hPa 0,0 l/m² 0 min 0 min 0 W/m² 12,9 km/h (3 Bft) 98,25 %
23.11.2025 19:36 1,3 °C 1,1 °C -2,8 °C 95 % 1000,7 hPa 0,0 l/m² 0 min 0 min 0 W/m² 19,3 km/h (3 Bft) 95,65 %
23.11.2025 19:38 1,3 °C 1,1 °C -2,8 °C 95 % 1000,7 hPa 0,0 l/m² 0 min 0 min 0 W/m² 12,9 km/h (3 Bft) 95,56 %
23.11.2025 19:40 1,3 °C 1,1 °C -2,8 °C 95 % 1000,7 hPa 0,0 l/m² 0 min 0 min 0 W/m² 16,1 km/h (3 Bft) 94,87 %
23.11.2025 19:42 1,3 °C 1,1 °C -2,8 °C 95 % 1000,7 hPa 0,0 l/m² 0 min 0 min 0 W/m² 19,3 km/h (3 Bft) 93,62 %
23.11.2025 19:44 1,4 °C 1,1 °C -2,8 °C 95 % 1000,6 hPa 0,0 l/m² 0 min 0 min 0 W/m² 19,3 km/h (3 Bft) 95,74 %
23.11.2025 19:46 1,4 °C 1,1 °C -2,8 °C 95 % 1000,6 hPa 0,0 l/m² 0 min 0 min 0 W/m² 12,9 km/h (3 Bft) 95,65 %
23.11.2025 19:48 1,4 °C 1,1 °C -2,8 °C 95 % 1000,5 hPa 0,0 l/m² 0 min 0 min 0 W/m² 12,9 km/h (3 Bft) 95,74 %
23.11.2025 19:50 1,4 °C 1,1 °C -2,8 °C 95 % 1000,5 hPa 0,0 l/m² 0 min 0 min 0 W/m² 25,7 km/h (4 Bft) 94,83 %
23.11.2025 19:52 1,4 °C 1,1 °C -2,8 °C 95 % 1000,5 hPa 0,0 l/m² 0 min 0 min 0 W/m² 16,1 km/h (3 Bft) 95,56 %
23.11.2025 19:54 1,4 °C 1,1 °C -2,8 °C 95 % 1000,5 hPa 0,0 l/m² 0 min 0 min 0 W/m² 19,3 km/h (3 Bft) 95,65 %
23.11.2025 19:56 1,4 °C 1,1 °C -2,8 °C 95 % 1000,5 hPa 0,2 l/m² 0 min 0 min 0 W/m² 16,1 km/h (3 Bft) 95,56 %
23.11.2025 19:58 1,4 °C 1,1 °C -2,8 °C 95 % 1000,5 hPa 0,0 l/m² 0 min 0 min 0 W/m² 19,3 km/h (3 Bft) 95,00 %
23.11.2025 20:00 1,4 °C 1,1 °C -2,8 °C 95 % 1000,5 hPa 0,0 l/m² 0 min 0 min 0 W/m² 16,1 km/h (3 Bft) 95,74 %
23.11.2025 20:02 1,4 °C 1,1 °C -2,8 °C 95 % 1000,5 hPa 0,0 l/m² 0 min 0 min 0 W/m² 19,3 km/h (3 Bft) 93,10 %
23.11.2025 20:04 1,5 °C 1,1 °C -2,8 °C 95 % 1000,5 hPa 0,0 l/m² 0 min 0 min 0 W/m² 19,3 km/h (3 Bft) 92,11 %
23.11.2025 20:07 1,5 °C 1,1 °C -2,8 °C 95 % 1000,5 hPa 0,0 l/m² 0 min 0 min 0 W/m² 12,9 km/h (3 Bft) 97,14 %
23.11.2025 20:08 1,5 °C 1,1 °C -2,8 °C 95 % 1000,5 hPa 0,0 l/m² 0 min 0 min 0 W/m² 12,9 km/h (3 Bft) 91,67 %
23.11.2025 20:12 1,5 °C 1,1 °C -2,8 °C 95 % 1000,5 hPa 0,0 l/m² 0 min 0 min 0 W/m² 16,1 km/h (3 Bft) 96,43 %
23.11.2025 20:14 1,6 °C 1,1 °C -2,8 °C 95 % 1000,4 hPa 0,0 l/m² 0 min 0 min 0 W/m² 16,1 km/h (3 Bft) 97,44 %
23.11.2025 20:16 1,6 °C 1,1 °C -2,8 °C 95 % 1000,4 hPa 0,0 l/m² 0 min 0 min 0 W/m² 22,5 km/h (4 Bft) 97,87 %
23.11.2025 20:18 1,6 °C 1,1 °C -2,8 °C 95 % 1000,4 hPa 0,0 l/m² 0 min 0 min 0 W/m² 12,9 km/h (3 Bft) 96,36 %
23.11.2025 20:20 1,6 °C 1,1 °C -2,8 °C 95 % 1000,4 hPa 0,0 l/m² 0 min 0 min 0 W/m² 22,5 km/h (4 Bft) 97,44 %
23.11.2025 20:22 1,6 °C 1,1 °C -2,8 °C 95 % 1000,3 hPa 0,0 l/m² 0 min 0 min 0 W/m² 19,3 km/h (3 Bft) 97,83 %
23.11.2025 20:24 1,6 °C 1,1 °C -2,8 °C 95 % 1000,3 hPa 0,0 l/m² 0 min 0 min 0 W/m² 19,3 km/h (3 Bft) 96,30 %
23.11.2025 20:26 1,6 °C 1,1 °C -2,8 °C 95 % 1000,3 hPa 0,0 l/m² 0 min 0 min 0 W/m² 19,3 km/h (3 Bft) 95,00 %
23.11.2025 20:28 1,6 °C 1,1 °C -2,8 °C 95 % 1000,3 hPa 0,0 l/m² 0 min 0 min 0 W/m² 16,1 km/h (3 Bft) 97,78 %
23.11.2025 20:30 1,6 °C 1,1 °C -2,8 °C 95 % 1000,3 hPa 0,0 l/m² 0 min 0 min 0 W/m² 19,3 km/h (3 Bft) 96,36 %
23.11.2025 20:32 1,6 °C 1,1 °C -2,8 °C 95 % 1000,3 hPa 0,0 l/m² 0 min 0 min 0 W/m² 19,3 km/h (3 Bft) 95,00 %
23.11.2025 20:34 1,6 °C 1,1 °C -2,8 °C 95 % 1000,3 hPa 0,0 l/m² 0 min 0 min 0 W/m² 16,1 km/h (3 Bft) 97,83 %
23.11.2025 20:36 1,6 °C 1,1 °C -2,8 °C 95 % 1000,3 hPa 0,0 l/m² 0 min 0 min 0 W/m² 22,5 km/h (4 Bft) 96,30 %
23.11.2025 20:38 1,6 °C 1,1 °C -2,8 °C 95 % 1000,2 hPa 0,0 l/m² 0 min 0 min 0 W/m² 16,1 km/h (3 Bft) 97,56 %
23.11.2025 20:40 1,6 °C 1,1 °C -2,8 °C 95 % 1000,3 hPa 0,0 l/m² 0 min 0 min 0 W/m² 16,1 km/h (3 Bft) 97,87 %
23.11.2025 20:42 1,6 °C 1,1 °C -2,8 °C 95 % 1000,2 hPa 0,0 l/m² 0 min 0 min 0 W/m² 19,3 km/h (3 Bft) 98,18 %
23.11.2025 20:44 1,6 °C 1,1 °C -2,8 °C 95 % 1000,2 hPa 0,0 l/m² 0 min 0 min 0 W/m² 19,3 km/h (3 Bft) 97,83 %
23.11.2025 20:46 1,6 °C 1,1 °C -2,8 °C 95 % 1000,2 hPa 0,0 l/m² 0 min 0 min 0 W/m² 19,3 km/h (3 Bft) 97,44 %
23.11.2025 20:48 1,6 °C 1,1 °C -2,8 °C 95 % 1000,2 hPa 0,0 l/m² 0 min 0 min 0 W/m² 19,3 km/h (3 Bft) 97,87 %
23.11.2025 20:50 1,6 °C 1,1 °C -2,8 °C 95 % 1000,2 hPa 0,0 l/m² 0 min 0 min 0 W/m² 16,1 km/h (3 Bft) 96,43 %
23.11.2025 20:52 1,6 °C 1,1 °C -2,8 °C 95 % 1000,2 hPa 0,0 l/m² 0 min 0 min 0 W/m² 16,1 km/h (3 Bft) 97,73 %
23.11.2025 20:54 1,6 °C 1,1 °C -2,8 °C 95 % 1000,2 hPa 0,0 l/m² 0 min 0 min 0 W/m² 19,3 km/h (3 Bft) 97,56 %
23.11.2025 20:56 1,6 °C 1,1 °C -2,8 °C 95 % 1000,1 hPa 0,0 l/m² 0 min 0 min 0 W/m² 22,5 km/h (4 Bft) 96,43 %
23.11.2025 20:58 1,6 °C 1,1 °C -2,8 °C 95 % 1000,1 hPa 0,0 l/m² 0 min 0 min 0 W/m² 19,3 km/h (3 Bft) 97,30 %
23.11.2025 21:00 1,6 °C 1,1 °C -2,8 °C 95 % 1000,1 hPa 0,0 l/m² 0 min 0 min 0 W/m² 22,5 km/h (4 Bft) 57,45 %
23.11.2025 21:02 1,6 °C 1,1 °C -2,8 °C 95 % 1000,1 hPa 0,0 l/m² 0 min 0 min 0 W/m² 16,1 km/h (3 Bft) 100,00 %
23.11.2025 21:04 1,7 °C 1,1 °C -2,8 °C 95 % 1000,1 hPa 0,0 l/m² 0 min 0 min 0 W/m² 16,1 km/h (3 Bft) 100,00 %
23.11.2025 21:08 1,7 °C 1,1 °C -2,8 °C 95 % 1000,0 hPa 0,0 l/m² 0 min 0 min 0 W/m² 19,3 km/h (3 Bft) 100,00 %
23.11.2025 21:10 1,7 °C 1,1 °C -2,8 °C 95 % 1000,1 hPa 0,0 l/m² 0 min 0 min 0 W/m² 12,9 km/h (3 Bft) 100,00 %
23.11.2025 21:12 1,7 °C 1,1 °C -2,8 °C 95 % 1000,0 hPa 0,0 l/m² 0 min 0 min 0 W/m² 16,1 km/h (3 Bft) 100,00 %
23.11.2025 21:14 1,7 °C 1,1 °C -2,8 °C 95 % 1000,0 hPa 0,0 l/m² 0 min 0 min 0 W/m² 16,1 km/h (3 Bft) 97,78 %
23.11.2025 21:16 1,7 °C 1,1 °C -2,8 °C 95 % 1000,0 hPa 0,0 l/m² 0 min 0 min 0 W/m² 16,1 km/h (3 Bft) 97,96 %
23.11.2025 21:18 1,8 °C 1,1 °C -2,8 °C 95 % 1000,0 hPa 0,0 l/m² 0 min 0 min 0 W/m² 16,1 km/h (3 Bft) 100,00 %
23.11.2025 21:20 1,8 °C 1,1 °C -2,2 °C 95 % 1000,0 hPa 0,0 l/m² 0 min 0 min 0 W/m² 19,3 km/h (3 Bft) 97,73 %
23.11.2025 21:22 1,8 °C 1,7 °C -2,2 °C 95 % 1000,0 hPa 0,2 l/m² 0 min 0 min 0 W/m² 16,1 km/h (3 Bft) 97,96 %
23.11.2025 21:24 1,8 °C 1,7 °C -2,2 °C 95 % 1000,0 hPa 0,0 l/m² 0 min 0 min 0 W/m² 16,1 km/h (3 Bft) 97,83 %
23.11.2025 21:26 1,8 °C 1,7 °C -2,2 °C 95 % 999,9 hPa 0,0 l/m² 0 min 0 min 0 W/m² 19,3 km/h (3 Bft) 98,15 %
23.11.2025 21:28 1,8 °C 1,7 °C -2,2 °C 95 % 999,9 hPa 0,0 l/m² 0 min 0 min 0 W/m² 16,1 km/h (3 Bft) 97,56 %
23.11.2025 21:30 1,8 °C 1,7 °C -2,2 °C 95 % 999,9 hPa 0,0 l/m² 0 min 0 min 0 W/m² 16,1 km/h (3 Bft) 97,78 %
23.11.2025 21:32 1,8 °C 1,7 °C -2,2 °C 95 % 1000,0 hPa 0,0 l/m² 0 min 0 min 0 W/m² 19,3 km/h (3 Bft) 96,43 %
23.11.2025 21:34 1,9 °C 1,7 °C -2,2 °C 95 % 1000,0 hPa 0,0 l/m² 0 min 0 min 0 W/m² 12,9 km/h (3 Bft) 94,87 %
23.11.2025 21:36 1,9 °C 1,7 °C -2,2 °C 95 % 1000,0 hPa 0,0 l/m² 0 min 0 min 0 W/m² 16,1 km/h (3 Bft) 95,65 %
23.11.2025 21:38 1,9 °C 1,7 °C -2,2 °C 95 % 1000,0 hPa 0,0 l/m² 0 min 0 min 0 W/m² 12,9 km/h (3 Bft) 94,55 %
23.11.2025 21:40 1,9 °C 1,7 °C -2,2 °C 95 % 999,9 hPa 0,0 l/m² 0 min 0 min 0 W/m² 12,9 km/h (3 Bft) 97,50 %
23.11.2025 21:42 1,9 °C 1,7 °C -2,2 °C 95 % 999,9 hPa 0,0 l/m² 0 min 0 min 0 W/m² 19,3 km/h (3 Bft) 97,73 %
23.11.2025 21:44 1,9 °C 1,7 °C -2,2 °C 95 % 999,9 hPa 0,0 l/m² 0 min 0 min 0 W/m² 16,1 km/h (3 Bft) 95,92 %
23.11.2025 21:46 1,9 °C 1,7 °C -2,2 °C 95 % 999,9 hPa 0,0 l/m² 0 min 0 min 0 W/m² 16,1 km/h (3 Bft) 97,83 %
23.11.2025 21:48 1,9 °C 1,7 °C -2,2 °C 95 % 999,8 hPa 0,0 l/m² 0 min 0 min 0 W/m² 12,9 km/h (3 Bft) 58,49 %
23.11.2025 21:50 1,9 °C 1,7 °C -2,2 °C 95 % 999,8 hPa 0,0 l/m² 0 min 0 min 0 W/m² 12,9 km/h (3 Bft) 100,00 %
23.11.2025 21:52 2,0 °C 1,7 °C -2,2 °C 95 % 999,9 hPa 0,0 l/m² 0 min 0 min 0 W/m² 12,9 km/h (3 Bft) 89,36 %
23.11.2025 21:54 2,0 °C 1,7 °C -2,2 °C 95 % 999,8 hPa 0,0 l/m² 0 min 0 min 0 W/m² 9,7 km/h (2 Bft) 97,67 %
23.11.2025 21:56 2,0 °C 1,7 °C -2,2 °C 95 % 999,8 hPa 0,0 l/m² 0 min 0 min 0 W/m² 12,9 km/h (3 Bft) 98,25 %
23.11.2025 21:58 2,1 °C 1,7 °C -2,2 °C 95 % 999,8 hPa 0,0 l/m² 0 min 0 min 0 W/m² 16,1 km/h (3 Bft) 97,50 %
23.11.2025 22:00 2,1 °C 1,7 °C -2,2 °C 95 % 999,8 hPa 0,0 l/m² 0 min 0 min 0 W/m² 12,9 km/h (3 Bft) 97,78 %
23.11.2025 22:02 2,1 °C 1,7 °C -2,2 °C 95 % 999,8 hPa 0,0 l/m² 0 min 0 min 0 W/m² 6,4 km/h (2 Bft) 98,21 %
23.11.2025 22:04 2,1 °C 1,7 °C -2,2 °C 95 % 999,7 hPa 0,0 l/m² 0 min 0 min 0 W/m² 6,4 km/h (2 Bft) 97,62 %
23.11.2025 22:06 2,1 °C 1,7 °C -2,2 °C 95 % 999,7 hPa 0,0 l/m² 0 min 0 min 0 W/m² 6,4 km/h (2 Bft) 98,18 %
23.11.2025 22:08 2,1 °C 1,7 °C -2,2 °C 95 % 999,6 hPa 0,0 l/m² 0 min 0 min 0 W/m² 16,1 km/h (3 Bft) 97,37 %
23.11.2025 22:10 2,1 °C 1,7 °C -2,2 °C 95 % 999,6 hPa 0,0 l/m² 0 min 0 min 0 W/m² 16,1 km/h (3 Bft) 97,78 %
23.11.2025 22:12 2,1 °C 1,7 °C -2,2 °C 95 % 999,6 hPa 0,0 l/m² 0 min 0 min 0 W/m² 12,9 km/h (3 Bft) 97,96 %
23.11.2025 22:14 2,2 °C 1,7 °C -2,2 °C 95 % 999,6 hPa 0,0 l/m² 0 min 0 min 0 W/m² 12,9 km/h (3 Bft) 97,78 %
23.11.2025 22:16 2,2 °C 1,7 °C -2,2 °C 95 % 999,6 hPa 0,0 l/m² 0 min 0 min 0 W/m² 12,9 km/h (3 Bft) 95,92 %
23.11.2025 22:18 2,2 °C 1,7 °C -2,2 °C 95 % 999,6 hPa 0,0 l/m² 0 min 0 min 0 W/m² 9,7 km/h (2 Bft) 97,78 %
23.11.2025 22:20 2,2 °C 1,7 °C -2,2 °C 95 % 999,6 hPa 0,0 l/m² 0 min 0 min 0 W/m² 12,9 km/h (3 Bft) 97,92 %
23.11.2025 22:22 2,2 °C 1,7 °C -2,2 °C 95 % 999,6 hPa 0,0 l/m² 0 min 0 min 0 W/m² 12,9 km/h (3 Bft) 97,73 %
23.11.2025 22:24 2,2 °C 1,7 °C -2,2 °C 95 % 999,6 hPa 0,0 l/m² 0 min 0 min 0 W/m² 6,4 km/h (2 Bft) 96,00 %
23.11.2025 22:26 2,2 °C 1,7 °C -2,2 °C 95 % 999,6 hPa 0,0 l/m² 0 min 0 min 0 W/m² 12,9 km/h (3 Bft) 97,62 %
23.11.2025 22:28 2,3 °C 1,7 °C -2,2 °C 95 % 999,6 hPa 0,0 l/m² 0 min 0 min 0 W/m² 12,9 km/h (3 Bft) 100,00 %
23.11.2025 22:30 2,3 °C 1,7 °C -2,2 °C 95 % 999,6 hPa 0,0 l/m² 0 min 0 min 0 W/m² 12,9 km/h (3 Bft) 100,00 %
23.11.2025 22:32 2,3 °C 2,2 °C -2,2 °C 95 % 999,6 hPa 0,0 l/m² 0 min 0 min 0 W/m² 16,1 km/h (3 Bft) 100,00 %
23.11.2025 22:34 2,3 °C 2,2 °C -2,2 °C 95 % 999,6 hPa 0,0 l/m² 0 min 0 min 0 W/m² 12,9 km/h (3 Bft) 100,00 %
23.11.2025 22:36 2,3 °C 2,2 °C -2,2 °C 95 % 999,5 hPa 0,0 l/m² 0 min 0 min 0 W/m² 12,9 km/h (3 Bft) 100,00 %
23.11.2025 22:38 2,3 °C 2,2 °C -2,2 °C 95 % 999,5 hPa 0,0 l/m² 0 min 0 min 0 W/m² 12,9 km/h (3 Bft) 100,00 %
23.11.2025 22:40 2,3 °C 2,2 °C -2,2 °C 95 % 999,5 hPa 0,0 l/m² 0 min 0 min 0 W/m² 16,1 km/h (3 Bft) 98,04 %
23.11.2025 22:42 2,3 °C 2,2 °C -1,7 °C 95 % 999,5 hPa 0,0 l/m² 0 min 0 min 0 W/m² 12,9 km/h (3 Bft) 100,00 %
23.11.2025 22:44 2,3 °C 2,2 °C -1,7 °C 95 % 999,5 hPa 0,0 l/m² 0 min 0 min 0 W/m² 12,9 km/h (3 Bft) 100,00 %
23.11.2025 22:46 2,3 °C 2,2 °C -1,7 °C 95 % 999,5 hPa 0,0 l/m² 0 min 0 min 0 W/m² 16,1 km/h (3 Bft) 97,83 %
23.11.2025 22:48 2,4 °C 2,2 °C -1,7 °C 95 % 999,4 hPa 0,0 l/m² 0 min 0 min 0 W/m² 12,9 km/h (3 Bft) 100,00 %
23.11.2025 22:50 2,4 °C 2,2 °C -1,7 °C 95 % 999,5 hPa 0,0 l/m² 0 min 0 min 0 W/m² 16,1 km/h (3 Bft) 100,00 %
23.11.2025 22:52 2,4 °C 2,2 °C -1,7 °C 95 % 999,4 hPa 0,0 l/m² 0 min 0 min 0 W/m² 16,1 km/h (3 Bft) 100,00 %
23.11.2025 22:54 2,4 °C 2,2 °C -1,7 °C 95 % 999,4 hPa 0,0 l/m² 0 min 0 min 0 W/m² 12,9 km/h (3 Bft) 100,00 %
23.11.2025 22:56 2,4 °C 2,2 °C -1,7 °C 95 % 999,4 hPa 0,0 l/m² 0 min 0 min 0 W/m² 12,9 km/h (3 Bft) 100,00 %
23.11.2025 22:58 2,4 °C 2,2 °C -1,7 °C 95 % 999,3 hPa 0,0 l/m² 0 min 0 min 0 W/m² 16,1 km/h (3 Bft) 100,00 %
23.11.2025 23:00 2,4 °C 2,2 °C -1,7 °C 95 % 999,3 hPa 0,0 l/m² 0 min 0 min 0 W/m² 19,3 km/h (3 Bft) 100,00 %
23.11.2025 23:02 2,4 °C 2,2 °C -1,7 °C 95 % 999,3 hPa 0,0 l/m² 0 min 0 min 0 W/m² 16,1 km/h (3 Bft) 100,00 %
23.11.2025 23:04 2,4 °C 2,2 °C -1,7 °C 95 % 999,2 hPa 0,0 l/m² 0 min 0 min 0 W/m² 16,1 km/h (3 Bft) 100,00 %
23.11.2025 23:06 2,4 °C 2,2 °C -1,7 °C 95 % 999,2 hPa 0,0 l/m² 0 min 0 min 0 W/m² 16,1 km/h (3 Bft) 100,00 %
23.11.2025 23:08 2,4 °C 2,2 °C -1,7 °C 95 % 999,2 hPa 0,0 l/m² 0 min 0 min 0 W/m² 16,1 km/h (3 Bft) 97,87 %
23.11.2025 23:10 2,5 °C 2,2 °C -1,7 °C 95 % 999,2 hPa 0,0 l/m² 0 min 0 min 0 W/m² 12,9 km/h (3 Bft) 97,14 %
23.11.2025 23:12 2,5 °C 2,2 °C -1,7 °C 95 % 999,1 hPa 0,0 l/m² 0 min 0 min 0 W/m² 12,9 km/h (3 Bft) 98,21 %
23.11.2025 23:14 2,5 °C 2,2 °C -1,7 °C 95 % 999,1 hPa 0,0 l/m² 0 min 0 min 0 W/m² 9,7 km/h (2 Bft) 97,96 %
23.11.2025 23:16 2,6 °C 2,2 °C -1,7 °C 95 % 999,1 hPa 0,0 l/m² 0 min 0 min 0 W/m² 12,9 km/h (3 Bft) 97,67 %
23.11.2025 23:18 2,6 °C 2,2 °C -1,7 °C 95 % 999,1 hPa 0,0 l/m² 0 min 0 min 0 W/m² 12,9 km/h (3 Bft) 98,04 %
23.11.2025 23:20 2,6 °C 2,2 °C -1,7 °C 95 % 999,1 hPa 0,0 l/m² 0 min 0 min 0 W/m² 12,9 km/h (3 Bft) 97,14 %
23.11.2025 23:22 2,6 °C 2,2 °C -1,7 °C 95 % 999,1 hPa 0,0 l/m² 0 min 0 min 0 W/m² 9,7 km/h (2 Bft) 96,49 %
23.11.2025 23:24 2,6 °C 2,2 °C -1,7 °C 95 % 999,0 hPa 0,0 l/m² 0 min 0 min 0 W/m² 16,1 km/h (3 Bft) 95,92 %
23.11.2025 23:26 2,6 °C 2,2 °C -1,7 °C 95 % 999,1 hPa 0,0 l/m² 0 min 0 min 0 W/m² 6,4 km/h (2 Bft) 93,02 %
23.11.2025 23:28 2,6 °C 2,2 °C -1,7 °C 95 % 999,1 hPa 0,0 l/m² 0 min 0 min 0 W/m² 6,4 km/h (2 Bft) 92,00 %
23.11.2025 23:30 2,6 °C 2,2 °C -1,7 °C 95 % 999,0 hPa 0,0 l/m² 0 min 0 min 0 W/m² 12,9 km/h (3 Bft) 69,05 %
23.11.2025 23:32 2,7 °C 2,2 °C -1,7 °C 95 % 999,0 hPa 0,0 l/m² 0 min 0 min 0 W/m² 12,9 km/h (3 Bft) 78,26 %
23.11.2025 23:34 2,7 °C 2,2 °C -1,7 °C 95 % 999,0 hPa 0,0 l/m² 0 min 0 min 0 W/m² 12,9 km/h (3 Bft) 97,14 %
23.11.2025 23:36 2,7 °C 2,2 °C -1,7 °C 95 % 999,0 hPa 0,0 l/m² 0 min 0 min 0 W/m² 6,4 km/h (2 Bft) 94,74 %
23.11.2025 23:38 2,7 °C 2,2 °C -1,7 °C 95 % 998,9 hPa 0,0 l/m² 0 min 0 min 0 W/m² 12,9 km/h (3 Bft) 97,92 %
23.11.2025 23:40 2,7 °C 2,2 °C -1,7 °C 95 % 998,9 hPa 0,0 l/m² 0 min 0 min 0 W/m² 12,9 km/h (3 Bft) 97,73 %
23.11.2025 23:42 2,7 °C 2,2 °C -1,7 °C 95 % 998,9 hPa 0,0 l/m² 0 min 0 min 0 W/m² 12,9 km/h (3 Bft) 96,00 %
23.11.2025 23:44 2,7 °C 2,2 °C -1,7 °C 95 % 998,9 hPa 0,0 l/m² 0 min 0 min 0 W/m² 9,7 km/h (2 Bft) 95,12 %
23.11.2025 23:46 2,8 °C 2,2 °C -1,7 °C 95 % 998,9 hPa 0,0 l/m² 0 min 0 min 0 W/m² 6,4 km/h (2 Bft) 96,15 %
23.11.2025 23:48 2,8 °C 2,2 °C -1,7 °C 95 % 998,9 hPa 0,0 l/m² 0 min 0 min 0 W/m² 6,4 km/h (2 Bft) 97,22 %
23.11.2025 23:50 2,8 °C 2,8 °C -1,7 °C 95 % 998,9 hPa 0,0 l/m² 0 min 0 min 0 W/m² 9,7 km/h (2 Bft) 98,25 %
23.11.2025 23:52 2,8 °C 2,8 °C -1,1 °C 95 % 998,9 hPa 0,0 l/m² 0 min 0 min 0 W/m² 12,9 km/h (3 Bft) 97,92 %
23.11.2025 23:54 2,8 °C 2,8 °C -1,1 °C 95 % 998,9 hPa 0,0 l/m² 0 min 0 min 0 W/m² 12,9 km/h (3 Bft) 97,78 %
23.11.2025 23:56 2,9 °C 2,8 °C -1,1 °C 95 % 998,8 hPa 0,0 l/m² 0 min 0 min 0 W/m² 12,9 km/h (3 Bft) 95,92 %
23.11.2025 23:58 2,9 °C 2,8 °C -1,1 °C 95 % 998,9 hPa 0,0 l/m² 0 min 0 min 0 W/m² 12,9 km/h (3 Bft) 97,56 %
_ Min-Zeit 03:10 01:30 01:26 13:44 23:56 - - - - 00:24 07:46
Minimum _ -1,6 °C -2,2 °C -5,6 °C 61 % 998,8 hPa - - - - 6,4 km/h (2 Bft) 36,36 %
_ Max-Zeit 13:34 13:26 13:22 19:06 00:00 16:56 12:08 17:52 13:28 11:04 00:12
Maximum _ 3,6 °C 8,3 °C -1,1 °C 95 % 1019,9 hPa 0,2 l/m² 4 min 2 min 400 W/m² 41,8 km/h
S (6 Bft)
100,00 %
Durchschnitt _ 0,6 °C 0,4 °C -3,6 °C 82 % 1008,6 hPa #1,4 l/m² #2:18 h #4 min. 113 W/m² 19,9 km/h (4 Bft) 96,77 %
© 2025 W. Hausmann